<?xml version="1.0" encoding="UTF-8"?>
<gpx version="1.1" creator="https://www.youtrack.es" xsi:schemaLocation="http://www.topografix.com/GPX/1/1 http://www.topografix.com/GPX/1/1/gpx.xsd http://www.garmin.com/xmlschemas/GpxExtensions/v3 http://www.garmin.com/xmlschemas/GpxExtensionsv3.xsd http://www.garmin.com/xmlschemas/TrackPointExtension/v1 http://www.garmin.com/xmlschemas/TrackPointExtensionv1.xsd" xmlns:gpxtpx="http://www.garmin.com/xmlschemas/TrackPointExtension/v1" xmlns:gpxx="http://www.garmin.com/xmlschemas/GpxExtensions/v3" xmlns:xsi="http://www.w3.org/2001/XMLSchema-instance">
  <metadata>
    <link href="https://www.youtrack.es">
      <text>YouTrack.es</text>
    </link>
    <time>2026-05-09T02:14:23Z</time>
  </metadata>
  <trk>
    <src>https://www.youtrack.es</src>
    <link href="https://www.youtrack.es/ruta/7251-03-otardi-leitza">
      <text>YouTrack.es</text>
    </link>
    <trkseg>
      <trkpt lat="43.20650525" lon="-2.10057735">
        <ele>169.00000</ele>
        <time>2010-01-01T00:00:00Z</time>
      </trkpt>
      <trkpt lat="43.20643487" lon="-2.10016965">
        <ele>168.00000</ele>
        <time>2010-01-01T00:00:12Z</time>
      </trkpt>
      <trkpt lat="43.20633321" lon="-2.09976196">
        <ele>166.00000</ele>
        <time>2010-01-01T00:00:24Z</time>
      </trkpt>
      <trkpt lat="43.20621591" lon="-2.09933280">
        <ele>165.00000</ele>
        <time>2010-01-01T00:00:38Z</time>
      </trkpt>
      <trkpt lat="43.20615334" lon="-2.09915041">
        <ele>165.00000</ele>
        <time>2010-01-01T00:00:44Z</time>
      </trkpt>
      <trkpt lat="43.20600600" lon="-2.09904200">
        <ele>167.00000</ele>
        <time>2010-01-01T00:00:50Z</time>
      </trkpt>
      <trkpt lat="43.20589400" lon="-2.09896200">
        <ele>168.00000</ele>
        <time>2010-01-01T00:00:55Z</time>
      </trkpt>
      <trkpt lat="43.20573600" lon="-2.09886200">
        <ele>170.00000</ele>
        <time>2010-01-01T00:01:02Z</time>
      </trkpt>
      <trkpt lat="43.20565200" lon="-2.09882000">
        <ele>170.00000</ele>
        <time>2010-01-01T00:01:06Z</time>
      </trkpt>
      <trkpt lat="43.20526900" lon="-2.09875300">
        <ele>172.00000</ele>
        <time>2010-01-01T00:01:21Z</time>
      </trkpt>
      <trkpt lat="43.20485700" lon="-2.09902500">
        <ele>170.00000</ele>
        <time>2010-01-01T00:01:40Z</time>
      </trkpt>
      <trkpt lat="43.20455100" lon="-2.09948800">
        <ele>166.00000</ele>
        <time>2010-01-01T00:01:58Z</time>
      </trkpt>
      <trkpt lat="43.20407100" lon="-2.09975200">
        <ele>159.00000</ele>
        <time>2010-01-01T00:02:19Z</time>
      </trkpt>
      <trkpt lat="43.20370800" lon="-2.09972900">
        <ele>154.00000</ele>
        <time>2010-01-01T00:02:33Z</time>
      </trkpt>
      <trkpt lat="43.20358700" lon="-2.09970200">
        <ele>153.00000</ele>
        <time>2010-01-01T00:02:38Z</time>
      </trkpt>
      <trkpt lat="43.20312900" lon="-2.09950400">
        <ele>153.00000</ele>
        <time>2010-01-01T00:02:57Z</time>
      </trkpt>
      <trkpt lat="43.20302200" lon="-2.09947500">
        <ele>151.00000</ele>
        <time>2010-01-01T00:03:02Z</time>
      </trkpt>
      <trkpt lat="43.20277700" lon="-2.09940800">
        <ele>144.00000</ele>
        <time>2010-01-01T00:03:12Z</time>
      </trkpt>
      <trkpt lat="43.20244900" lon="-2.09919300">
        <ele>137.00000</ele>
        <time>2010-01-01T00:03:26Z</time>
      </trkpt>
      <trkpt lat="43.20224400" lon="-2.09893400">
        <ele>135.00000</ele>
        <time>2010-01-01T00:03:37Z</time>
      </trkpt>
      <trkpt lat="43.20214000" lon="-2.09879500">
        <ele>134.00000</ele>
        <time>2010-01-01T00:03:43Z</time>
      </trkpt>
      <trkpt lat="43.20195700" lon="-2.09850900">
        <ele>132.00000</ele>
        <time>2010-01-01T00:03:54Z</time>
      </trkpt>
      <trkpt lat="43.20188700" lon="-2.09837100">
        <ele>132.00000</ele>
        <time>2010-01-01T00:03:59Z</time>
      </trkpt>
      <trkpt lat="43.20162200" lon="-2.09808100">
        <ele>129.00000</ele>
        <time>2010-01-01T00:04:13Z</time>
      </trkpt>
      <trkpt lat="43.20151300" lon="-2.09802300">
        <ele>130.00000</ele>
        <time>2010-01-01T00:04:17Z</time>
      </trkpt>
      <trkpt lat="43.20119400" lon="-2.09768500">
        <ele>133.00000</ele>
        <time>2010-01-01T00:04:33Z</time>
      </trkpt>
      <trkpt lat="43.20086100" lon="-2.09710100">
        <ele>127.00000</ele>
        <time>2010-01-01T00:04:55Z</time>
      </trkpt>
      <trkpt lat="43.20082200" lon="-2.09705500">
        <ele>126.00000</ele>
        <time>2010-01-01T00:04:57Z</time>
      </trkpt>
      <trkpt lat="43.20042600" lon="-2.09695400">
        <ele>125.00000</ele>
        <time>2010-01-01T00:05:13Z</time>
      </trkpt>
      <trkpt lat="43.20010800" lon="-2.09698400">
        <ele>125.00000</ele>
        <time>2010-01-01T00:05:26Z</time>
      </trkpt>
      <trkpt lat="43.20004200" lon="-2.09692300">
        <ele>123.00000</ele>
        <time>2010-01-01T00:05:29Z</time>
      </trkpt>
      <trkpt lat="43.19959100" lon="-2.09635400">
        <ele>125.00000</ele>
        <time>2010-01-01T00:05:54Z</time>
      </trkpt>
      <trkpt lat="43.19940500" lon="-2.09617700">
        <ele>125.00000</ele>
        <time>2010-01-01T00:06:03Z</time>
      </trkpt>
      <trkpt lat="43.19899200" lon="-2.09586000">
        <ele>126.00000</ele>
        <time>2010-01-01T00:06:22Z</time>
      </trkpt>
      <trkpt lat="43.19868700" lon="-2.09558600">
        <ele>129.00000</ele>
        <time>2010-01-01T00:06:36Z</time>
      </trkpt>
      <trkpt lat="43.19863900" lon="-2.09550100">
        <ele>129.00000</ele>
        <time>2010-01-01T00:06:40Z</time>
      </trkpt>
      <trkpt lat="43.19833100" lon="-2.09509600">
        <ele>134.00000</ele>
        <time>2010-01-01T00:06:57Z</time>
      </trkpt>
      <trkpt lat="43.19826800" lon="-2.09504900">
        <ele>135.00000</ele>
        <time>2010-01-01T00:06:59Z</time>
      </trkpt>
      <trkpt lat="43.19813200" lon="-2.09491100">
        <ele>135.00000</ele>
        <time>2010-01-01T00:07:06Z</time>
      </trkpt>
      <trkpt lat="43.19800900" lon="-2.09461200">
        <ele>133.00000</ele>
        <time>2010-01-01T00:07:16Z</time>
      </trkpt>
      <trkpt lat="43.19797600" lon="-2.09445400">
        <ele>132.00000</ele>
        <time>2010-01-01T00:07:21Z</time>
      </trkpt>
      <trkpt lat="43.19794000" lon="-2.09405100">
        <ele>131.00000</ele>
        <time>2010-01-01T00:07:33Z</time>
      </trkpt>
      <trkpt lat="43.19771400" lon="-2.09380700">
        <ele>131.00000</ele>
        <time>2010-01-01T00:07:44Z</time>
      </trkpt>
      <trkpt lat="43.19696200" lon="-2.09428100">
        <ele>132.00000</ele>
        <time>2010-01-01T00:08:18Z</time>
      </trkpt>
      <trkpt lat="43.19676300" lon="-2.09441100">
        <ele>131.00000</ele>
        <time>2010-01-01T00:08:26Z</time>
      </trkpt>
      <trkpt lat="43.19665300" lon="-2.09447200">
        <ele>131.00000</ele>
        <time>2010-01-01T00:08:31Z</time>
      </trkpt>
      <trkpt lat="43.19643900" lon="-2.09471500">
        <ele>132.00000</ele>
        <time>2010-01-01T00:08:42Z</time>
      </trkpt>
      <trkpt lat="43.19623500" lon="-2.09480500">
        <ele>131.00000</ele>
        <time>2010-01-01T00:08:51Z</time>
      </trkpt>
      <trkpt lat="43.19592500" lon="-2.09486800">
        <ele>129.00000</ele>
        <time>2010-01-01T00:09:03Z</time>
      </trkpt>
      <trkpt lat="43.19580300" lon="-2.09487500">
        <ele>127.00000</ele>
        <time>2010-01-01T00:09:08Z</time>
      </trkpt>
      <trkpt lat="43.19560100" lon="-2.09483400">
        <ele>124.00000</ele>
        <time>2010-01-01T00:09:16Z</time>
      </trkpt>
      <trkpt lat="43.19540100" lon="-2.09463200">
        <ele>122.00000</ele>
        <time>2010-01-01T00:09:26Z</time>
      </trkpt>
      <trkpt lat="43.19527300" lon="-2.09440500">
        <ele>120.00000</ele>
        <time>2010-01-01T00:09:35Z</time>
      </trkpt>
      <trkpt lat="43.19498700" lon="-2.09416300">
        <ele>117.00000</ele>
        <time>2010-01-01T00:09:48Z</time>
      </trkpt>
      <trkpt lat="43.19418200" lon="-2.09386800">
        <ele>115.00000</ele>
        <time>2010-01-01T00:10:22Z</time>
      </trkpt>
      <trkpt lat="43.19412800" lon="-2.09384000">
        <ele>114.00000</ele>
        <time>2010-01-01T00:10:24Z</time>
      </trkpt>
      <trkpt lat="43.19379400" lon="-2.09358700">
        <ele>113.00000</ele>
        <time>2010-01-01T00:10:39Z</time>
      </trkpt>
      <trkpt lat="43.19363700" lon="-2.09349700">
        <ele>113.00000</ele>
        <time>2010-01-01T00:10:46Z</time>
      </trkpt>
      <trkpt lat="43.19342900" lon="-2.09344900">
        <ele>111.00000</ele>
        <time>2010-01-01T00:10:54Z</time>
      </trkpt>
      <trkpt lat="43.19330900" lon="-2.09345600">
        <ele>109.00000</ele>
        <time>2010-01-01T00:10:59Z</time>
      </trkpt>
      <trkpt lat="43.19317300" lon="-2.09346600">
        <ele>107.00000</ele>
        <time>2010-01-01T00:11:05Z</time>
      </trkpt>
      <trkpt lat="43.19310400" lon="-2.09349400">
        <ele>106.00000</ele>
        <time>2010-01-01T00:11:08Z</time>
      </trkpt>
      <trkpt lat="43.19305600" lon="-2.09355200">
        <ele>105.00000</ele>
        <time>2010-01-01T00:11:10Z</time>
      </trkpt>
      <trkpt lat="43.19304200" lon="-2.09363800">
        <ele>104.00000</ele>
        <time>2010-01-01T00:11:13Z</time>
      </trkpt>
      <trkpt lat="43.19306500" lon="-2.09373400">
        <ele>102.00000</ele>
        <time>2010-01-01T00:11:16Z</time>
      </trkpt>
      <trkpt lat="43.19318300" lon="-2.09383700">
        <ele>101.00000</ele>
        <time>2010-01-01T00:11:21Z</time>
      </trkpt>
      <trkpt lat="43.19325800" lon="-2.09385900">
        <ele>101.00000</ele>
        <time>2010-01-01T00:11:24Z</time>
      </trkpt>
      <trkpt lat="43.19340500" lon="-2.09386500">
        <ele>102.00000</ele>
        <time>2010-01-01T00:11:30Z</time>
      </trkpt>
      <trkpt lat="43.19346400" lon="-2.09389100">
        <ele>102.00000</ele>
        <time>2010-01-01T00:11:33Z</time>
      </trkpt>
      <trkpt lat="43.19352000" lon="-2.09394800">
        <ele>102.00000</ele>
        <time>2010-01-01T00:11:35Z</time>
      </trkpt>
      <trkpt lat="43.19355900" lon="-2.09403200">
        <ele>101.00000</ele>
        <time>2010-01-01T00:11:38Z</time>
      </trkpt>
      <trkpt lat="43.19361600" lon="-2.09429700">
        <ele>99.000000</ele>
        <time>2010-01-01T00:11:46Z</time>
      </trkpt>
      <trkpt lat="43.19363300" lon="-2.09438400">
        <ele>99.000000</ele>
        <time>2010-01-01T00:11:49Z</time>
      </trkpt>
      <trkpt lat="43.19363600" lon="-2.09446800">
        <ele>99.000000</ele>
        <time>2010-01-01T00:11:51Z</time>
      </trkpt>
      <trkpt lat="43.19362200" lon="-2.09453900">
        <ele>98.000000</ele>
        <time>2010-01-01T00:11:54Z</time>
      </trkpt>
      <trkpt lat="43.19354900" lon="-2.09465500">
        <ele>98.000000</ele>
        <time>2010-01-01T00:11:58Z</time>
      </trkpt>
      <trkpt lat="43.19348800" lon="-2.09467900">
        <ele>97.000000</ele>
        <time>2010-01-01T00:12:01Z</time>
      </trkpt>
      <trkpt lat="43.19342300" lon="-2.09467400">
        <ele>97.000000</ele>
        <time>2010-01-01T00:12:03Z</time>
      </trkpt>
      <trkpt lat="43.19336800" lon="-2.09463300">
        <ele>97.000000</ele>
        <time>2010-01-01T00:12:06Z</time>
      </trkpt>
      <trkpt lat="43.19331700" lon="-2.09457000">
        <ele>97.000000</ele>
        <time>2010-01-01T00:12:09Z</time>
      </trkpt>
      <trkpt lat="43.19328800" lon="-2.09449900">
        <ele>97.000000</ele>
        <time>2010-01-01T00:12:11Z</time>
      </trkpt>
      <trkpt lat="43.19324100" lon="-2.09433500">
        <ele>97.000000</ele>
        <time>2010-01-01T00:12:16Z</time>
      </trkpt>
      <trkpt lat="43.19320900" lon="-2.09426500">
        <ele>97.000000</ele>
        <time>2010-01-01T00:12:18Z</time>
      </trkpt>
      <trkpt lat="43.19316400" lon="-2.09419300">
        <ele>97.000000</ele>
        <time>2010-01-01T00:12:21Z</time>
      </trkpt>
      <trkpt lat="43.19284300" lon="-2.09389900">
        <ele>98.000000</ele>
        <time>2010-01-01T00:12:37Z</time>
      </trkpt>
      <trkpt lat="43.19238300" lon="-2.09357700">
        <ele>98.000000</ele>
        <time>2010-01-01T00:12:57Z</time>
      </trkpt>
      <trkpt lat="43.19227700" lon="-2.09349300">
        <ele>97.000000</ele>
        <time>2010-01-01T00:13:02Z</time>
      </trkpt>
      <trkpt lat="43.19221600" lon="-2.09347500">
        <ele>96.000000</ele>
        <time>2010-01-01T00:13:05Z</time>
      </trkpt>
      <trkpt lat="43.19215600" lon="-2.09347600">
        <ele>96.000000</ele>
        <time>2010-01-01T00:13:07Z</time>
      </trkpt>
      <trkpt lat="43.19206000" lon="-2.09352100">
        <ele>95.000000</ele>
        <time>2010-01-01T00:13:11Z</time>
      </trkpt>
      <trkpt lat="43.19192000" lon="-2.09361200">
        <ele>95.000000</ele>
        <time>2010-01-01T00:13:17Z</time>
      </trkpt>
      <trkpt lat="43.19175900" lon="-2.09330400">
        <ele>96.000000</ele>
        <time>2010-01-01T00:13:28Z</time>
      </trkpt>
      <trkpt lat="43.19165500" lon="-2.09301600">
        <ele>94.000000</ele>
        <time>2010-01-01T00:13:38Z</time>
      </trkpt>
      <trkpt lat="43.19142700" lon="-2.09285000">
        <ele>95.000000</ele>
        <time>2010-01-01T00:13:48Z</time>
      </trkpt>
      <trkpt lat="43.19120100" lon="-2.09278400">
        <ele>96.000000</ele>
        <time>2010-01-01T00:13:57Z</time>
      </trkpt>
      <trkpt lat="43.19106300" lon="-2.09278300">
        <ele>96.000000</ele>
        <time>2010-01-01T00:14:03Z</time>
      </trkpt>
      <trkpt lat="43.19074700" lon="-2.09291100">
        <ele>97.000000</ele>
        <time>2010-01-01T00:14:16Z</time>
      </trkpt>
      <trkpt lat="43.19065000" lon="-2.09298000">
        <ele>98.000000</ele>
        <time>2010-01-01T00:14:21Z</time>
      </trkpt>
      <trkpt lat="43.19045400" lon="-2.09316900">
        <ele>100.00000</ele>
        <time>2010-01-01T00:14:30Z</time>
      </trkpt>
      <trkpt lat="43.18991700" lon="-2.09320800">
        <ele>99.000000</ele>
        <time>2010-01-01T00:14:52Z</time>
      </trkpt>
      <trkpt lat="43.18984300" lon="-2.09286300">
        <ele>100.00000</ele>
        <time>2010-01-01T00:15:02Z</time>
      </trkpt>
      <trkpt lat="43.18987000" lon="-2.09175800">
        <ele>96.000000</ele>
        <time>2010-01-01T00:15:34Z</time>
      </trkpt>
      <trkpt lat="43.18987900" lon="-2.09167100">
        <ele>96.000000</ele>
        <time>2010-01-01T00:15:37Z</time>
      </trkpt>
      <trkpt lat="43.18988100" lon="-2.09155000">
        <ele>95.000000</ele>
        <time>2010-01-01T00:15:40Z</time>
      </trkpt>
      <trkpt lat="43.18988100" lon="-2.09120000">
        <ele>95.000000</ele>
        <time>2010-01-01T00:15:51Z</time>
      </trkpt>
      <trkpt lat="43.18977200" lon="-2.09079800">
        <ele>97.000000</ele>
        <time>2010-01-01T00:16:03Z</time>
      </trkpt>
      <trkpt lat="43.18959500" lon="-2.09061800">
        <ele>96.000000</ele>
        <time>2010-01-01T00:16:12Z</time>
      </trkpt>
      <trkpt lat="43.18949300" lon="-2.09053000">
        <ele>96.000000</ele>
        <time>2010-01-01T00:16:17Z</time>
      </trkpt>
      <trkpt lat="43.18933600" lon="-2.09034200">
        <ele>97.000000</ele>
        <time>2010-01-01T00:16:25Z</time>
      </trkpt>
      <trkpt lat="43.18918000" lon="-2.09000200">
        <ele>95.000000</ele>
        <time>2010-01-01T00:16:37Z</time>
      </trkpt>
      <trkpt lat="43.18891200" lon="-2.08902600">
        <ele>90.000000</ele>
        <time>2010-01-01T00:17:07Z</time>
      </trkpt>
      <trkpt lat="43.18872700" lon="-2.08841800">
        <ele>88.000000</ele>
        <time>2010-01-01T00:17:27Z</time>
      </trkpt>
      <trkpt lat="43.18869500" lon="-2.08819300">
        <ele>88.000000</ele>
        <time>2010-01-01T00:17:33Z</time>
      </trkpt>
      <trkpt lat="43.18870000" lon="-2.08811700">
        <ele>88.000000</ele>
        <time>2010-01-01T00:17:36Z</time>
      </trkpt>
      <trkpt lat="43.18873800" lon="-2.08783300">
        <ele>87.000000</ele>
        <time>2010-01-01T00:17:44Z</time>
      </trkpt>
      <trkpt lat="43.18884100" lon="-2.08715700">
        <ele>86.000000</ele>
        <time>2010-01-01T00:18:04Z</time>
      </trkpt>
      <trkpt lat="43.18885900" lon="-2.08683700">
        <ele>86.000000</ele>
        <time>2010-01-01T00:18:13Z</time>
      </trkpt>
      <trkpt lat="43.18879700" lon="-2.08639500">
        <ele>85.000000</ele>
        <time>2010-01-01T00:18:27Z</time>
      </trkpt>
      <trkpt lat="43.18876800" lon="-2.08588600">
        <ele>84.000000</ele>
        <time>2010-01-01T00:18:42Z</time>
      </trkpt>
      <trkpt lat="43.18875500" lon="-2.08490400">
        <ele>99.000000</ele>
        <time>2010-01-01T00:19:10Z</time>
      </trkpt>
      <trkpt lat="43.18882400" lon="-2.08461500">
        <ele>98.000000</ele>
        <time>2010-01-01T00:19:19Z</time>
      </trkpt>
      <trkpt lat="43.18889700" lon="-2.08443300">
        <ele>95.000000</ele>
        <time>2010-01-01T00:19:25Z</time>
      </trkpt>
      <trkpt lat="43.18921000" lon="-2.08409300">
        <ele>86.000000</ele>
        <time>2010-01-01T00:19:41Z</time>
      </trkpt>
      <trkpt lat="43.18929100" lon="-2.08398500">
        <ele>85.000000</ele>
        <time>2010-01-01T00:19:46Z</time>
      </trkpt>
      <trkpt lat="43.18944600" lon="-2.08360300">
        <ele>83.000000</ele>
        <time>2010-01-01T00:19:58Z</time>
      </trkpt>
      <trkpt lat="43.18939200" lon="-2.08340900">
        <ele>85.000000</ele>
        <time>2010-01-01T00:20:04Z</time>
      </trkpt>
      <trkpt lat="43.18937300" lon="-2.08332400">
        <ele>86.000000</ele>
        <time>2010-01-01T00:20:07Z</time>
      </trkpt>
      <trkpt lat="43.18930000" lon="-2.08307100">
        <ele>87.000000</ele>
        <time>2010-01-01T00:20:15Z</time>
      </trkpt>
      <trkpt lat="43.18921500" lon="-2.08287100">
        <ele>85.000000</ele>
        <time>2010-01-01T00:20:22Z</time>
      </trkpt>
      <trkpt lat="43.18896400" lon="-2.08264400">
        <ele>86.000000</ele>
        <time>2010-01-01T00:20:34Z</time>
      </trkpt>
      <trkpt lat="43.18891600" lon="-2.08262600">
        <ele>86.000000</ele>
        <time>2010-01-01T00:20:36Z</time>
      </trkpt>
      <trkpt lat="43.18887200" lon="-2.08242100">
        <ele>85.000000</ele>
        <time>2010-01-01T00:20:42Z</time>
      </trkpt>
      <trkpt lat="43.18890300" lon="-2.08226000">
        <ele>84.000000</ele>
        <time>2010-01-01T00:20:47Z</time>
      </trkpt>
      <trkpt lat="43.18892200" lon="-2.08182700">
        <ele>85.000000</ele>
        <time>2010-01-01T00:21:00Z</time>
      </trkpt>
      <trkpt lat="43.18930400" lon="-2.08070400">
        <ele>83.000000</ele>
        <time>2010-01-01T00:21:36Z</time>
      </trkpt>
      <trkpt lat="43.18962400" lon="-2.08002600">
        <ele>82.000000</ele>
        <time>2010-01-01T00:21:59Z</time>
      </trkpt>
      <trkpt lat="43.18973300" lon="-2.07942600">
        <ele>82.000000</ele>
        <time>2010-01-01T00:22:17Z</time>
      </trkpt>
      <trkpt lat="43.18974200" lon="-2.07863300">
        <ele>80.000000</ele>
        <time>2010-01-01T00:22:40Z</time>
      </trkpt>
      <trkpt lat="43.18976300" lon="-2.07780500">
        <ele>81.000000</ele>
        <time>2010-01-01T00:23:05Z</time>
      </trkpt>
      <trkpt lat="43.18977900" lon="-2.07728500">
        <ele>83.000000</ele>
        <time>2010-01-01T00:23:20Z</time>
      </trkpt>
      <trkpt lat="43.18983100" lon="-2.07701500">
        <ele>83.000000</ele>
        <time>2010-01-01T00:23:28Z</time>
      </trkpt>
      <trkpt lat="43.18982500" lon="-2.07661300">
        <ele>82.000000</ele>
        <time>2010-01-01T00:23:40Z</time>
      </trkpt>
      <trkpt lat="43.18967000" lon="-2.07601900">
        <ele>82.000000</ele>
        <time>2010-01-01T00:23:58Z</time>
      </trkpt>
      <trkpt lat="43.18963000" lon="-2.07572500">
        <ele>80.000000</ele>
        <time>2010-01-01T00:24:07Z</time>
      </trkpt>
      <trkpt lat="43.18959600" lon="-2.07515400">
        <ele>76.000000</ele>
        <time>2010-01-01T00:24:24Z</time>
      </trkpt>
      <trkpt lat="43.18960000" lon="-2.07505100">
        <ele>75.000000</ele>
        <time>2010-01-01T00:24:27Z</time>
      </trkpt>
      <trkpt lat="43.18958000" lon="-2.07484700">
        <ele>74.000000</ele>
        <time>2010-01-01T00:24:33Z</time>
      </trkpt>
      <trkpt lat="43.18965900" lon="-2.07457100">
        <ele>73.000000</ele>
        <time>2010-01-01T00:24:41Z</time>
      </trkpt>
      <trkpt lat="43.18976700" lon="-2.07460300">
        <ele>72.000000</ele>
        <time>2010-01-01T00:24:46Z</time>
      </trkpt>
      <trkpt lat="43.18985900" lon="-2.07457700">
        <ele>72.000000</ele>
        <time>2010-01-01T00:24:49Z</time>
      </trkpt>
      <trkpt lat="43.19027900" lon="-2.07427900">
        <ele>69.000000</ele>
        <time>2010-01-01T00:25:08Z</time>
      </trkpt>
      <trkpt lat="43.19046900" lon="-2.07400000">
        <ele>69.000000</ele>
        <time>2010-01-01T00:25:19Z</time>
      </trkpt>
      <trkpt lat="43.19054200" lon="-2.07353400">
        <ele>72.000000</ele>
        <time>2010-01-01T00:25:33Z</time>
      </trkpt>
      <trkpt lat="43.19049300" lon="-2.07302900">
        <ele>72.000000</ele>
        <time>2010-01-01T00:25:48Z</time>
      </trkpt>
      <trkpt lat="43.19046900" lon="-2.07278600">
        <ele>72.000000</ele>
        <time>2010-01-01T00:25:55Z</time>
      </trkpt>
      <trkpt lat="43.19045600" lon="-2.07265800">
        <ele>72.000000</ele>
        <time>2010-01-01T00:25:59Z</time>
      </trkpt>
      <trkpt lat="43.19046000" lon="-2.07252000">
        <ele>71.000000</ele>
        <time>2010-01-01T00:26:03Z</time>
      </trkpt>
      <trkpt lat="43.19050000" lon="-2.07230300">
        <ele>70.000000</ele>
        <time>2010-01-01T00:26:10Z</time>
      </trkpt>
      <trkpt lat="43.19054300" lon="-2.07216000">
        <ele>70.000000</ele>
        <time>2010-01-01T00:26:14Z</time>
      </trkpt>
      <trkpt lat="43.19069200" lon="-2.07183800">
        <ele>69.000000</ele>
        <time>2010-01-01T00:26:25Z</time>
      </trkpt>
      <trkpt lat="43.19076200" lon="-2.07144400">
        <ele>70.000000</ele>
        <time>2010-01-01T00:26:37Z</time>
      </trkpt>
      <trkpt lat="43.19100200" lon="-2.07117200">
        <ele>69.000000</ele>
        <time>2010-01-01T00:26:50Z</time>
      </trkpt>
      <trkpt lat="43.19097100" lon="-2.07096200">
        <ele>70.000000</ele>
        <time>2010-01-01T00:26:56Z</time>
      </trkpt>
      <trkpt lat="43.19093000" lon="-2.07073100">
        <ele>71.000000</ele>
        <time>2010-01-01T00:27:03Z</time>
      </trkpt>
      <trkpt lat="43.19078900" lon="-2.06990700">
        <ele>69.000000</ele>
        <time>2010-01-01T00:27:28Z</time>
      </trkpt>
      <trkpt lat="43.19071100" lon="-2.06948100">
        <ele>68.000000</ele>
        <time>2010-01-01T00:27:40Z</time>
      </trkpt>
      <trkpt lat="43.19065300" lon="-2.06900200">
        <ele>66.000000</ele>
        <time>2010-01-01T00:27:55Z</time>
      </trkpt>
      <trkpt lat="43.19062600" lon="-2.06886100">
        <ele>65.000000</ele>
        <time>2010-01-01T00:27:59Z</time>
      </trkpt>
      <trkpt lat="43.19060500" lon="-2.06878900">
        <ele>65.000000</ele>
        <time>2010-01-01T00:28:01Z</time>
      </trkpt>
      <trkpt lat="43.19054900" lon="-2.06865800">
        <ele>65.000000</ele>
        <time>2010-01-01T00:28:06Z</time>
      </trkpt>
      <trkpt lat="43.19044400" lon="-2.06847800">
        <ele>65.000000</ele>
        <time>2010-01-01T00:28:12Z</time>
      </trkpt>
      <trkpt lat="43.19040400" lon="-2.06844100">
        <ele>65.000000</ele>
        <time>2010-01-01T00:28:14Z</time>
      </trkpt>
      <trkpt lat="43.19004500" lon="-2.06816200">
        <ele>69.000000</ele>
        <time>2010-01-01T00:28:31Z</time>
      </trkpt>
      <trkpt lat="43.18986300" lon="-2.06775700">
        <ele>75.000000</ele>
        <time>2010-01-01T00:28:45Z</time>
      </trkpt>
      <trkpt lat="43.18985200" lon="-2.06659000">
        <ele>69.000000</ele>
        <time>2010-01-01T00:29:19Z</time>
      </trkpt>
      <trkpt lat="43.18990300" lon="-2.06577300">
        <ele>65.000000</ele>
        <time>2010-01-01T00:29:43Z</time>
      </trkpt>
      <trkpt lat="43.18988100" lon="-2.06507100">
        <ele>63.000000</ele>
        <time>2010-01-01T00:30:03Z</time>
      </trkpt>
      <trkpt lat="43.18993800" lon="-2.06424600">
        <ele>65.000000</ele>
        <time>2010-01-01T00:30:27Z</time>
      </trkpt>
      <trkpt lat="43.18997000" lon="-2.06405000">
        <ele>66.000000</ele>
        <time>2010-01-01T00:30:33Z</time>
      </trkpt>
      <trkpt lat="43.19016400" lon="-2.06348000">
        <ele>68.000000</ele>
        <time>2010-01-01T00:30:52Z</time>
      </trkpt>
      <trkpt lat="43.19021000" lon="-2.06333900">
        <ele>68.000000</ele>
        <time>2010-01-01T00:30:56Z</time>
      </trkpt>
      <trkpt lat="43.19023700" lon="-2.06313400">
        <ele>67.000000</ele>
        <time>2010-01-01T00:31:02Z</time>
      </trkpt>
      <trkpt lat="43.19023500" lon="-2.06280200">
        <ele>68.000000</ele>
        <time>2010-01-01T00:31:12Z</time>
      </trkpt>
      <trkpt lat="43.19037200" lon="-2.06212700">
        <ele>74.000000</ele>
        <time>2010-01-01T00:31:32Z</time>
      </trkpt>
      <trkpt lat="43.19054600" lon="-2.06175200">
        <ele>74.000000</ele>
        <time>2010-01-01T00:31:45Z</time>
      </trkpt>
      <trkpt lat="43.19060700" lon="-2.06168400">
        <ele>73.000000</ele>
        <time>2010-01-01T00:31:48Z</time>
      </trkpt>
      <trkpt lat="43.19065800" lon="-2.06163500">
        <ele>72.000000</ele>
        <time>2010-01-01T00:31:51Z</time>
      </trkpt>
      <trkpt lat="43.19069300" lon="-2.06161200">
        <ele>71.000000</ele>
        <time>2010-01-01T00:31:52Z</time>
      </trkpt>
      <trkpt lat="43.19078400" lon="-2.06157000">
        <ele>69.000000</ele>
        <time>2010-01-01T00:31:56Z</time>
      </trkpt>
      <trkpt lat="43.19098100" lon="-2.06133600">
        <ele>67.000000</ele>
        <time>2010-01-01T00:32:07Z</time>
      </trkpt>
      <trkpt lat="43.19106500" lon="-2.06117000">
        <ele>66.000000</ele>
        <time>2010-01-01T00:32:13Z</time>
      </trkpt>
      <trkpt lat="43.19123500" lon="-2.06095100">
        <ele>63.000000</ele>
        <time>2010-01-01T00:32:22Z</time>
      </trkpt>
      <trkpt lat="43.19139500" lon="-2.06062400">
        <ele>56.000000</ele>
        <time>2010-01-01T00:32:33Z</time>
      </trkpt>
      <trkpt lat="43.19144400" lon="-2.06046100">
        <ele>57.000000</ele>
        <time>2010-01-01T00:32:39Z</time>
      </trkpt>
      <trkpt lat="43.19144300" lon="-2.06019100">
        <ele>58.000000</ele>
        <time>2010-01-01T00:32:46Z</time>
      </trkpt>
      <trkpt lat="43.19112900" lon="-2.05898500">
        <ele>58.000000</ele>
        <time>2010-01-01T00:33:24Z</time>
      </trkpt>
      <trkpt lat="43.19093600" lon="-2.05866200">
        <ele>60.000000</ele>
        <time>2010-01-01T00:33:36Z</time>
      </trkpt>
      <trkpt lat="43.19086400" lon="-2.05859100">
        <ele>61.000000</ele>
        <time>2010-01-01T00:33:40Z</time>
      </trkpt>
      <trkpt lat="43.19071100" lon="-2.05831400">
        <ele>60.000000</ele>
        <time>2010-01-01T00:33:50Z</time>
      </trkpt>
      <trkpt lat="43.19047900" lon="-2.05775200">
        <ele>55.000000</ele>
        <time>2010-01-01T00:34:09Z</time>
      </trkpt>
      <trkpt lat="43.19100500" lon="-2.05645000">
        <ele>59.000000</ele>
        <time>2010-01-01T00:00:00Z</time>
      </trkpt>
      <trkpt lat="43.19110900" lon="-2.05634800">
        <ele>59.000000</ele>
        <time>2010-01-01T00:00:05Z</time>
      </trkpt>
      <trkpt lat="43.19122800" lon="-2.05631000">
        <ele>59.000000</ele>
        <time>2010-01-01T00:00:10Z</time>
      </trkpt>
      <trkpt lat="43.19135500" lon="-2.05628900">
        <ele>59.000000</ele>
        <time>2010-01-01T00:00:15Z</time>
      </trkpt>
      <trkpt lat="43.19149400" lon="-2.05627500">
        <ele>59.000000</ele>
        <time>2010-01-01T00:00:20Z</time>
      </trkpt>
      <trkpt lat="43.19163100" lon="-2.05625300">
        <ele>59.000000</ele>
        <time>2010-01-01T00:00:26Z</time>
      </trkpt>
      <trkpt lat="43.19175900" lon="-2.05627000">
        <ele>60.000000</ele>
        <time>2010-01-01T00:00:31Z</time>
      </trkpt>
      <trkpt lat="43.19186900" lon="-2.05637300">
        <ele>60.000000</ele>
        <time>2010-01-01T00:00:36Z</time>
      </trkpt>
      <trkpt lat="43.19196400" lon="-2.05649300">
        <ele>62.000000</ele>
        <time>2010-01-01T00:00:41Z</time>
      </trkpt>
      <trkpt lat="43.19205500" lon="-2.05661500">
        <ele>63.000000</ele>
        <time>2010-01-01T00:00:46Z</time>
      </trkpt>
      <trkpt lat="43.19214200" lon="-2.05673400">
        <ele>63.000000</ele>
        <time>2010-01-01T00:00:51Z</time>
      </trkpt>
      <trkpt lat="43.19223000" lon="-2.05683200">
        <ele>64.000000</ele>
        <time>2010-01-01T00:00:56Z</time>
      </trkpt>
      <trkpt lat="43.19233100" lon="-2.05690000">
        <ele>65.000000</ele>
        <time>2010-01-01T00:01:00Z</time>
      </trkpt>
      <trkpt lat="43.19243000" lon="-2.05696300">
        <ele>66.000000</ele>
        <time>2010-01-01T00:01:05Z</time>
      </trkpt>
      <trkpt lat="43.19253900" lon="-2.05702100">
        <ele>66.000000</ele>
        <time>2010-01-01T00:01:09Z</time>
      </trkpt>
      <trkpt lat="43.19264300" lon="-2.05708600">
        <ele>66.000000</ele>
        <time>2010-01-01T00:01:14Z</time>
      </trkpt>
      <trkpt lat="43.19275000" lon="-2.05714100">
        <ele>65.000000</ele>
        <time>2010-01-01T00:01:19Z</time>
      </trkpt>
      <trkpt lat="43.19286000" lon="-2.05716700">
        <ele>64.000000</ele>
        <time>2010-01-01T00:01:23Z</time>
      </trkpt>
      <trkpt lat="43.19297300" lon="-2.05715200">
        <ele>63.000000</ele>
        <time>2010-01-01T00:01:28Z</time>
      </trkpt>
      <trkpt lat="43.19308700" lon="-2.05711900">
        <ele>62.000000</ele>
        <time>2010-01-01T00:01:32Z</time>
      </trkpt>
      <trkpt lat="43.19320100" lon="-2.05708100">
        <ele>62.000000</ele>
        <time>2010-01-01T00:01:37Z</time>
      </trkpt>
      <trkpt lat="43.19331100" lon="-2.05704400">
        <ele>62.000000</ele>
        <time>2010-01-01T00:01:42Z</time>
      </trkpt>
      <trkpt lat="43.19341700" lon="-2.05701100">
        <ele>63.000000</ele>
        <time>2010-01-01T00:01:46Z</time>
      </trkpt>
      <trkpt lat="43.19351700" lon="-2.05697400">
        <ele>63.000000</ele>
        <time>2010-01-01T00:01:50Z</time>
      </trkpt>
      <trkpt lat="43.19361600" lon="-2.05693400">
        <ele>62.000000</ele>
        <time>2010-01-01T00:01:54Z</time>
      </trkpt>
      <trkpt lat="43.19371200" lon="-2.05689300">
        <ele>60.000000</ele>
        <time>2010-01-01T00:01:58Z</time>
      </trkpt>
      <trkpt lat="43.19386200" lon="-2.05683000">
        <ele>56.000000</ele>
        <time>2010-01-01T00:02:04Z</time>
      </trkpt>
      <trkpt lat="43.19395400" lon="-2.05678900">
        <ele>55.000000</ele>
        <time>2010-01-01T00:02:08Z</time>
      </trkpt>
      <trkpt lat="43.19410100" lon="-2.05676900">
        <ele>55.000000</ele>
        <time>2010-01-01T00:02:14Z</time>
      </trkpt>
      <trkpt lat="43.19419400" lon="-2.05680500">
        <ele>55.000000</ele>
        <time>2010-01-01T00:02:18Z</time>
      </trkpt>
      <trkpt lat="43.19434700" lon="-2.05686400">
        <ele>56.000000</ele>
        <time>2010-01-01T00:02:24Z</time>
      </trkpt>
      <trkpt lat="43.19444700" lon="-2.05690000">
        <ele>56.000000</ele>
        <time>2010-01-01T00:02:29Z</time>
      </trkpt>
      <trkpt lat="43.19454700" lon="-2.05693800">
        <ele>56.000000</ele>
        <time>2010-01-01T00:02:33Z</time>
      </trkpt>
      <trkpt lat="43.19465500" lon="-2.05698000">
        <ele>56.000000</ele>
        <time>2010-01-01T00:02:37Z</time>
      </trkpt>
      <trkpt lat="43.19475800" lon="-2.05701900">
        <ele>57.000000</ele>
        <time>2010-01-01T00:02:42Z</time>
      </trkpt>
      <trkpt lat="43.19487000" lon="-2.05705600">
        <ele>57.000000</ele>
        <time>2010-01-01T00:02:46Z</time>
      </trkpt>
      <trkpt lat="43.19499600" lon="-2.05707300">
        <ele>58.000000</ele>
        <time>2010-01-01T00:02:51Z</time>
      </trkpt>
      <trkpt lat="43.19518100" lon="-2.05705700">
        <ele>56.000000</ele>
        <time>2010-01-01T00:02:59Z</time>
      </trkpt>
      <trkpt lat="43.19530400" lon="-2.05702800">
        <ele>54.000000</ele>
        <time>2010-01-01T00:03:04Z</time>
      </trkpt>
      <trkpt lat="43.19541500" lon="-2.05694600">
        <ele>53.000000</ele>
        <time>2010-01-01T00:03:09Z</time>
      </trkpt>
      <trkpt lat="43.19551700" lon="-2.05684600">
        <ele>53.000000</ele>
        <time>2010-01-01T00:03:14Z</time>
      </trkpt>
      <trkpt lat="43.19560700" lon="-2.05673500">
        <ele>53.000000</ele>
        <time>2010-01-01T00:03:19Z</time>
      </trkpt>
      <trkpt lat="43.19569500" lon="-2.05662300">
        <ele>54.000000</ele>
        <time>2010-01-01T00:03:23Z</time>
      </trkpt>
      <trkpt lat="43.19578100" lon="-2.05650100">
        <ele>55.000000</ele>
        <time>2010-01-01T00:03:28Z</time>
      </trkpt>
      <trkpt lat="43.19591900" lon="-2.05632600">
        <ele>56.000000</ele>
        <time>2010-01-01T00:03:36Z</time>
      </trkpt>
      <trkpt lat="43.19601500" lon="-2.05620900">
        <ele>56.000000</ele>
        <time>2010-01-01T00:03:41Z</time>
      </trkpt>
      <trkpt lat="43.19610800" lon="-2.05608500">
        <ele>56.000000</ele>
        <time>2010-01-01T00:03:46Z</time>
      </trkpt>
      <trkpt lat="43.19619800" lon="-2.05595700">
        <ele>56.000000</ele>
        <time>2010-01-01T00:03:51Z</time>
      </trkpt>
      <trkpt lat="43.19629000" lon="-2.05583500">
        <ele>56.000000</ele>
        <time>2010-01-01T00:03:56Z</time>
      </trkpt>
      <trkpt lat="43.19638800" lon="-2.05570700">
        <ele>56.000000</ele>
        <time>2010-01-01T00:04:02Z</time>
      </trkpt>
      <trkpt lat="43.19648300" lon="-2.05557900">
        <ele>57.000000</ele>
        <time>2010-01-01T00:04:07Z</time>
      </trkpt>
      <trkpt lat="43.19661900" lon="-2.05539700">
        <ele>57.000000</ele>
        <time>2010-01-01T00:04:15Z</time>
      </trkpt>
      <trkpt lat="43.19671100" lon="-2.05528300">
        <ele>58.000000</ele>
        <time>2010-01-01T00:04:20Z</time>
      </trkpt>
      <trkpt lat="43.19680000" lon="-2.05515900">
        <ele>59.000000</ele>
        <time>2010-01-01T00:04:25Z</time>
      </trkpt>
      <trkpt lat="43.19693400" lon="-2.05498400">
        <ele>58.000000</ele>
        <time>2010-01-01T00:04:32Z</time>
      </trkpt>
      <trkpt lat="43.19701600" lon="-2.05486300">
        <ele>59.000000</ele>
        <time>2010-01-01T00:04:37Z</time>
      </trkpt>
      <trkpt lat="43.19709400" lon="-2.05473500">
        <ele>60.000000</ele>
        <time>2010-01-01T00:04:42Z</time>
      </trkpt>
      <trkpt lat="43.19722100" lon="-2.05456300">
        <ele>60.000000</ele>
        <time>2010-01-01T00:04:49Z</time>
      </trkpt>
      <trkpt lat="43.19729100" lon="-2.05442700">
        <ele>61.000000</ele>
        <time>2010-01-01T00:04:54Z</time>
      </trkpt>
      <trkpt lat="43.19737100" lon="-2.05429300">
        <ele>63.000000</ele>
        <time>2010-01-01T00:04:59Z</time>
      </trkpt>
      <trkpt lat="43.19744200" lon="-2.05415100">
        <ele>63.000000</ele>
        <time>2010-01-01T00:05:04Z</time>
      </trkpt>
      <trkpt lat="43.19750200" lon="-2.05400900">
        <ele>62.000000</ele>
        <time>2010-01-01T00:05:09Z</time>
      </trkpt>
      <trkpt lat="43.19759700" lon="-2.05380600">
        <ele>63.000000</ele>
        <time>2010-01-01T00:05:16Z</time>
      </trkpt>
      <trkpt lat="43.19765400" lon="-2.05366600">
        <ele>63.000000</ele>
        <time>2010-01-01T00:05:21Z</time>
      </trkpt>
      <trkpt lat="43.19771300" lon="-2.05352500">
        <ele>62.000000</ele>
        <time>2010-01-01T00:05:25Z</time>
      </trkpt>
      <trkpt lat="43.19778000" lon="-2.05337800">
        <ele>61.000000</ele>
        <time>2010-01-01T00:05:30Z</time>
      </trkpt>
      <trkpt lat="43.19784400" lon="-2.05323500">
        <ele>60.000000</ele>
        <time>2010-01-01T00:05:35Z</time>
      </trkpt>
      <trkpt lat="43.19793600" lon="-2.05301900">
        <ele>60.000000</ele>
        <time>2010-01-01T00:05:43Z</time>
      </trkpt>
      <trkpt lat="43.19800100" lon="-2.05287400">
        <ele>60.000000</ele>
        <time>2010-01-01T00:05:48Z</time>
      </trkpt>
      <trkpt lat="43.19810500" lon="-2.05266900">
        <ele>59.000000</ele>
        <time>2010-01-01T00:05:55Z</time>
      </trkpt>
      <trkpt lat="43.19817400" lon="-2.05252400">
        <ele>59.000000</ele>
        <time>2010-01-01T00:06:00Z</time>
      </trkpt>
      <trkpt lat="43.19823900" lon="-2.05238100">
        <ele>59.000000</ele>
        <time>2010-01-01T00:06:05Z</time>
      </trkpt>
      <trkpt lat="43.19833900" lon="-2.05214800">
        <ele>58.000000</ele>
        <time>2010-01-01T00:06:13Z</time>
      </trkpt>
      <trkpt lat="43.19840600" lon="-2.05198300">
        <ele>57.000000</ele>
        <time>2010-01-01T00:06:18Z</time>
      </trkpt>
      <trkpt lat="43.19847800" lon="-2.05181500">
        <ele>57.000000</ele>
        <time>2010-01-01T00:06:24Z</time>
      </trkpt>
      <trkpt lat="43.19856700" lon="-2.05154300">
        <ele>58.000000</ele>
        <time>2010-01-01T00:06:33Z</time>
      </trkpt>
      <trkpt lat="43.19858800" lon="-2.05134500">
        <ele>59.000000</ele>
        <time>2010-01-01T00:06:38Z</time>
      </trkpt>
      <trkpt lat="43.19856300" lon="-2.05108800">
        <ele>60.000000</ele>
        <time>2010-01-01T00:06:46Z</time>
      </trkpt>
      <trkpt lat="43.19850400" lon="-2.05084900">
        <ele>62.000000</ele>
        <time>2010-01-01T00:06:53Z</time>
      </trkpt>
      <trkpt lat="43.19842200" lon="-2.05063100">
        <ele>62.000000</ele>
        <time>2010-01-01T00:07:01Z</time>
      </trkpt>
      <trkpt lat="43.19834700" lon="-2.05049200">
        <ele>62.000000</ele>
        <time>2010-01-01T00:07:06Z</time>
      </trkpt>
      <trkpt lat="43.19820200" lon="-2.05035900">
        <ele>59.000000</ele>
        <time>2010-01-01T00:07:13Z</time>
      </trkpt>
      <trkpt lat="43.19809800" lon="-2.05028200">
        <ele>58.000000</ele>
        <time>2010-01-01T00:07:17Z</time>
      </trkpt>
      <trkpt lat="43.19803500" lon="-2.05015800">
        <ele>57.000000</ele>
        <time>2010-01-01T00:07:22Z</time>
      </trkpt>
      <trkpt lat="43.19795400" lon="-2.04991800">
        <ele>57.000000</ele>
        <time>2010-01-01T00:07:29Z</time>
      </trkpt>
      <trkpt lat="43.19791500" lon="-2.04973200">
        <ele>58.000000</ele>
        <time>2010-01-01T00:07:35Z</time>
      </trkpt>
      <trkpt lat="43.19790500" lon="-2.04955300">
        <ele>58.000000</ele>
        <time>2010-01-01T00:07:40Z</time>
      </trkpt>
      <trkpt lat="43.19799200" lon="-2.04927100">
        <ele>58.000000</ele>
        <time>2010-01-01T00:07:49Z</time>
      </trkpt>
      <trkpt lat="43.19807700" lon="-2.04905600">
        <ele>57.000000</ele>
        <time>2010-01-01T00:07:56Z</time>
      </trkpt>
      <trkpt lat="43.19813500" lon="-2.04882000">
        <ele>56.000000</ele>
        <time>2010-01-01T00:08:04Z</time>
      </trkpt>
      <trkpt lat="43.19818100" lon="-2.04860300">
        <ele>56.000000</ele>
        <time>2010-01-01T00:08:10Z</time>
      </trkpt>
      <trkpt lat="43.19821900" lon="-2.04833300">
        <ele>56.000000</ele>
        <time>2010-01-01T00:08:18Z</time>
      </trkpt>
      <trkpt lat="43.19824100" lon="-2.04818200">
        <ele>57.000000</ele>
        <time>2010-01-01T00:08:23Z</time>
      </trkpt>
      <trkpt lat="43.19826400" lon="-2.04802500">
        <ele>57.000000</ele>
        <time>2010-01-01T00:08:27Z</time>
      </trkpt>
      <trkpt lat="43.19829100" lon="-2.04779100">
        <ele>57.000000</ele>
        <time>2010-01-01T00:08:34Z</time>
      </trkpt>
      <trkpt lat="43.19830400" lon="-2.04763100">
        <ele>57.000000</ele>
        <time>2010-01-01T00:08:39Z</time>
      </trkpt>
      <trkpt lat="43.19831600" lon="-2.04745300">
        <ele>56.000000</ele>
        <time>2010-01-01T00:08:44Z</time>
      </trkpt>
      <trkpt lat="43.19834100" lon="-2.04727500">
        <ele>56.000000</ele>
        <time>2010-01-01T00:08:50Z</time>
      </trkpt>
      <trkpt lat="43.19840500" lon="-2.04700500">
        <ele>55.000000</ele>
        <time>2010-01-01T00:08:58Z</time>
      </trkpt>
      <trkpt lat="43.19846000" lon="-2.04681100">
        <ele>55.000000</ele>
        <time>2010-01-01T00:09:04Z</time>
      </trkpt>
      <trkpt lat="43.19851700" lon="-2.04661300">
        <ele>56.000000</ele>
        <time>2010-01-01T00:09:10Z</time>
      </trkpt>
      <trkpt lat="43.19858400" lon="-2.04642800">
        <ele>56.000000</ele>
        <time>2010-01-01T00:09:16Z</time>
      </trkpt>
      <trkpt lat="43.19866900" lon="-2.04627100">
        <ele>56.000000</ele>
        <time>2010-01-01T00:09:22Z</time>
      </trkpt>
      <trkpt lat="43.19881800" lon="-2.04610400">
        <ele>56.000000</ele>
        <time>2010-01-01T00:09:30Z</time>
      </trkpt>
      <trkpt lat="43.19892800" lon="-2.04602800">
        <ele>55.000000</ele>
        <time>2010-01-01T00:09:34Z</time>
      </trkpt>
      <trkpt lat="43.19905000" lon="-2.04597300">
        <ele>56.000000</ele>
        <time>2010-01-01T00:09:40Z</time>
      </trkpt>
      <trkpt lat="43.19924200" lon="-2.04597000">
        <ele>58.000000</ele>
        <time>2010-01-01T00:09:47Z</time>
      </trkpt>
      <trkpt lat="43.19936300" lon="-2.04603800">
        <ele>58.000000</ele>
        <time>2010-01-01T00:09:53Z</time>
      </trkpt>
      <trkpt lat="43.19947500" lon="-2.04613000">
        <ele>59.000000</ele>
        <time>2010-01-01T00:09:58Z</time>
      </trkpt>
      <trkpt lat="43.19957700" lon="-2.04622900">
        <ele>59.000000</ele>
        <time>2010-01-01T00:10:03Z</time>
      </trkpt>
      <trkpt lat="43.19968100" lon="-2.04633100">
        <ele>59.000000</ele>
        <time>2010-01-01T00:10:08Z</time>
      </trkpt>
      <trkpt lat="43.19977500" lon="-2.04643200">
        <ele>60.000000</ele>
        <time>2010-01-01T00:10:13Z</time>
      </trkpt>
      <trkpt lat="43.19992700" lon="-2.04658200">
        <ele>63.000000</ele>
        <time>2010-01-01T00:10:20Z</time>
      </trkpt>
      <trkpt lat="43.20003800" lon="-2.04668700">
        <ele>65.000000</ele>
        <time>2010-01-01T00:10:26Z</time>
      </trkpt>
      <trkpt lat="43.20015500" lon="-2.04675300">
        <ele>65.000000</ele>
        <time>2010-01-01T00:10:31Z</time>
      </trkpt>
      <trkpt lat="43.20034500" lon="-2.04682800">
        <ele>66.000000</ele>
        <time>2010-01-01T00:10:39Z</time>
      </trkpt>
      <trkpt lat="43.20046600" lon="-2.04683200">
        <ele>65.000000</ele>
        <time>2010-01-01T00:10:43Z</time>
      </trkpt>
      <trkpt lat="43.20058700" lon="-2.04680300">
        <ele>64.000000</ele>
        <time>2010-01-01T00:10:48Z</time>
      </trkpt>
      <trkpt lat="43.20070400" lon="-2.04674500">
        <ele>64.000000</ele>
        <time>2010-01-01T00:10:53Z</time>
      </trkpt>
      <trkpt lat="43.20080900" lon="-2.04665700">
        <ele>63.000000</ele>
        <time>2010-01-01T00:10:58Z</time>
      </trkpt>
      <trkpt lat="43.20091500" lon="-2.04656700">
        <ele>63.000000</ele>
        <time>2010-01-01T00:11:03Z</time>
      </trkpt>
      <trkpt lat="43.20107000" lon="-2.04641800">
        <ele>62.000000</ele>
        <time>2010-01-01T00:11:11Z</time>
      </trkpt>
      <trkpt lat="43.20117300" lon="-2.04632200">
        <ele>63.000000</ele>
        <time>2010-01-01T00:11:16Z</time>
      </trkpt>
      <trkpt lat="43.20132300" lon="-2.04617900">
        <ele>65.000000</ele>
        <time>2010-01-01T00:11:23Z</time>
      </trkpt>
      <trkpt lat="43.20142200" lon="-2.04607800">
        <ele>66.000000</ele>
        <time>2010-01-01T00:11:28Z</time>
      </trkpt>
      <trkpt lat="43.20151500" lon="-2.04597000">
        <ele>66.000000</ele>
        <time>2010-01-01T00:11:33Z</time>
      </trkpt>
      <trkpt lat="43.20163900" lon="-2.04579200">
        <ele>66.000000</ele>
        <time>2010-01-01T00:11:40Z</time>
      </trkpt>
      <trkpt lat="43.20171200" lon="-2.04567300">
        <ele>64.000000</ele>
        <time>2010-01-01T00:11:45Z</time>
      </trkpt>
      <trkpt lat="43.20181100" lon="-2.04548400">
        <ele>62.000000</ele>
        <time>2010-01-01T00:11:51Z</time>
      </trkpt>
      <trkpt lat="43.20187500" lon="-2.04535200">
        <ele>60.000000</ele>
        <time>2010-01-01T00:11:56Z</time>
      </trkpt>
      <trkpt lat="43.20194100" lon="-2.04521900">
        <ele>60.000000</ele>
        <time>2010-01-01T00:12:01Z</time>
      </trkpt>
      <trkpt lat="43.20204500" lon="-2.04503500">
        <ele>61.000000</ele>
        <time>2010-01-01T00:12:07Z</time>
      </trkpt>
      <trkpt lat="43.20212900" lon="-2.04494000">
        <ele>61.000000</ele>
        <time>2010-01-01T00:12:12Z</time>
      </trkpt>
      <trkpt lat="43.20220800" lon="-2.04484000">
        <ele>61.000000</ele>
        <time>2010-01-01T00:12:16Z</time>
      </trkpt>
      <trkpt lat="43.20228900" lon="-2.04475400">
        <ele>62.000000</ele>
        <time>2010-01-01T00:12:20Z</time>
      </trkpt>
      <trkpt lat="43.20241600" lon="-2.04460900">
        <ele>62.000000</ele>
        <time>2010-01-01T00:12:27Z</time>
      </trkpt>
      <trkpt lat="43.20250900" lon="-2.04451200">
        <ele>62.000000</ele>
        <time>2010-01-01T00:12:32Z</time>
      </trkpt>
      <trkpt lat="43.20259800" lon="-2.04441500">
        <ele>63.000000</ele>
        <time>2010-01-01T00:12:36Z</time>
      </trkpt>
      <trkpt lat="43.20270100" lon="-2.04432600">
        <ele>63.000000</ele>
        <time>2010-01-01T00:12:41Z</time>
      </trkpt>
      <trkpt lat="43.20281000" lon="-2.04423600">
        <ele>62.000000</ele>
        <time>2010-01-01T00:12:46Z</time>
      </trkpt>
      <trkpt lat="43.20297400" lon="-2.04410000">
        <ele>59.000000</ele>
        <time>2010-01-01T00:12:54Z</time>
      </trkpt>
      <trkpt lat="43.20308800" lon="-2.04401300">
        <ele>58.000000</ele>
        <time>2010-01-01T00:12:59Z</time>
      </trkpt>
      <trkpt lat="43.20325700" lon="-2.04386500">
        <ele>60.000000</ele>
        <time>2010-01-01T00:13:07Z</time>
      </trkpt>
      <trkpt lat="43.20336000" lon="-2.04374500">
        <ele>61.000000</ele>
        <time>2010-01-01T00:13:12Z</time>
      </trkpt>
      <trkpt lat="43.20346700" lon="-2.04362800">
        <ele>62.000000</ele>
        <time>2010-01-01T00:13:18Z</time>
      </trkpt>
      <trkpt lat="43.20357100" lon="-2.04350400">
        <ele>61.000000</ele>
        <time>2010-01-01T00:13:23Z</time>
      </trkpt>
      <trkpt lat="43.20367200" lon="-2.04338500">
        <ele>61.000000</ele>
        <time>2010-01-01T00:13:29Z</time>
      </trkpt>
      <trkpt lat="43.20381200" lon="-2.04321900">
        <ele>62.000000</ele>
        <time>2010-01-01T00:13:36Z</time>
      </trkpt>
      <trkpt lat="43.20390300" lon="-2.04311200">
        <ele>64.000000</ele>
        <time>2010-01-01T00:13:41Z</time>
      </trkpt>
      <trkpt lat="43.20398500" lon="-2.04300500">
        <ele>63.000000</ele>
        <time>2010-01-01T00:13:45Z</time>
      </trkpt>
      <trkpt lat="43.20412000" lon="-2.04283900">
        <ele>61.000000</ele>
        <time>2010-01-01T00:13:53Z</time>
      </trkpt>
      <trkpt lat="43.20420300" lon="-2.04273700">
        <ele>60.000000</ele>
        <time>2010-01-01T00:13:57Z</time>
      </trkpt>
      <trkpt lat="43.20428500" lon="-2.04263500">
        <ele>59.000000</ele>
        <time>2010-01-01T00:14:02Z</time>
      </trkpt>
      <trkpt lat="43.20440600" lon="-2.04246200">
        <ele>58.000000</ele>
        <time>2010-01-01T00:14:09Z</time>
      </trkpt>
      <trkpt lat="43.20447700" lon="-2.04233600">
        <ele>58.000000</ele>
        <time>2010-01-01T00:14:13Z</time>
      </trkpt>
      <trkpt lat="43.20455500" lon="-2.04221400">
        <ele>57.000000</ele>
        <time>2010-01-01T00:14:18Z</time>
      </trkpt>
      <trkpt lat="43.20465000" lon="-2.04211500">
        <ele>58.000000</ele>
        <time>2010-01-01T00:14:23Z</time>
      </trkpt>
      <trkpt lat="43.20475200" lon="-2.04205100">
        <ele>58.000000</ele>
        <time>2010-01-01T00:14:27Z</time>
      </trkpt>
      <trkpt lat="43.20491300" lon="-2.04199500">
        <ele>59.000000</ele>
        <time>2010-01-01T00:14:34Z</time>
      </trkpt>
      <trkpt lat="43.20500900" lon="-2.04192500">
        <ele>59.000000</ele>
        <time>2010-01-01T00:14:38Z</time>
      </trkpt>
      <trkpt lat="43.20507800" lon="-2.04180400">
        <ele>58.000000</ele>
        <time>2010-01-01T00:14:43Z</time>
      </trkpt>
      <trkpt lat="43.20514200" lon="-2.04167800">
        <ele>57.000000</ele>
        <time>2010-01-01T00:14:47Z</time>
      </trkpt>
      <trkpt lat="43.20521800" lon="-2.04155700">
        <ele>56.000000</ele>
        <time>2010-01-01T00:14:52Z</time>
      </trkpt>
      <trkpt lat="43.20529700" lon="-2.04144300">
        <ele>55.000000</ele>
        <time>2010-01-01T00:14:56Z</time>
      </trkpt>
      <trkpt lat="43.20537400" lon="-2.04133000">
        <ele>55.000000</ele>
        <time>2010-01-01T00:15:01Z</time>
      </trkpt>
      <trkpt lat="43.20545700" lon="-2.04122200">
        <ele>54.000000</ele>
        <time>2010-01-01T00:15:06Z</time>
      </trkpt>
      <trkpt lat="43.20554000" lon="-2.04112100">
        <ele>54.000000</ele>
        <time>2010-01-01T00:15:10Z</time>
      </trkpt>
      <trkpt lat="43.20567600" lon="-2.04097000">
        <ele>55.000000</ele>
        <time>2010-01-01T00:15:17Z</time>
      </trkpt>
      <trkpt lat="43.20576300" lon="-2.04087500">
        <ele>56.000000</ele>
        <time>2010-01-01T00:15:21Z</time>
      </trkpt>
      <trkpt lat="43.20586300" lon="-2.04080100">
        <ele>56.000000</ele>
        <time>2010-01-01T00:15:26Z</time>
      </trkpt>
      <trkpt lat="43.20596600" lon="-2.04073600">
        <ele>57.000000</ele>
        <time>2010-01-01T00:15:31Z</time>
      </trkpt>
      <trkpt lat="43.20606500" lon="-2.04067400">
        <ele>57.000000</ele>
        <time>2010-01-01T00:15:35Z</time>
      </trkpt>
      <trkpt lat="43.20617800" lon="-2.04063500">
        <ele>58.000000</ele>
        <time>2010-01-01T00:15:40Z</time>
      </trkpt>
      <trkpt lat="43.20629100" lon="-2.04060000">
        <ele>59.000000</ele>
        <time>2010-01-01T00:15:44Z</time>
      </trkpt>
      <trkpt lat="43.20640800" lon="-2.04054900">
        <ele>61.000000</ele>
        <time>2010-01-01T00:15:49Z</time>
      </trkpt>
      <trkpt lat="43.20652100" lon="-2.04050300">
        <ele>63.000000</ele>
        <time>2010-01-01T00:15:54Z</time>
      </trkpt>
      <trkpt lat="43.20662500" lon="-2.04043500">
        <ele>64.000000</ele>
        <time>2010-01-01T00:15:58Z</time>
      </trkpt>
      <trkpt lat="43.20672500" lon="-2.04035900">
        <ele>65.000000</ele>
        <time>2010-01-01T00:16:03Z</time>
      </trkpt>
      <trkpt lat="43.20682100" lon="-2.04026500">
        <ele>65.000000</ele>
        <time>2010-01-01T00:16:08Z</time>
      </trkpt>
      <trkpt lat="43.20690800" lon="-2.04017900">
        <ele>65.000000</ele>
        <time>2010-01-01T00:16:12Z</time>
      </trkpt>
      <trkpt lat="43.20704600" lon="-2.04006200">
        <ele>62.000000</ele>
        <time>2010-01-01T00:16:19Z</time>
      </trkpt>
      <trkpt lat="43.20713400" lon="-2.03997100">
        <ele>59.000000</ele>
        <time>2010-01-01T00:16:23Z</time>
      </trkpt>
      <trkpt lat="43.20722400" lon="-2.03988000">
        <ele>58.000000</ele>
        <time>2010-01-01T00:16:27Z</time>
      </trkpt>
      <trkpt lat="43.20731500" lon="-2.03979800">
        <ele>57.000000</ele>
        <time>2010-01-01T00:16:32Z</time>
      </trkpt>
      <trkpt lat="43.20740400" lon="-2.03970200">
        <ele>56.000000</ele>
        <time>2010-01-01T00:16:36Z</time>
      </trkpt>
      <trkpt lat="43.20749300" lon="-2.03960700">
        <ele>56.000000</ele>
        <time>2010-01-01T00:16:41Z</time>
      </trkpt>
      <trkpt lat="43.20758100" lon="-2.03950400">
        <ele>56.000000</ele>
        <time>2010-01-01T00:16:45Z</time>
      </trkpt>
      <trkpt lat="43.20767100" lon="-2.03940000">
        <ele>56.000000</ele>
        <time>2010-01-01T00:16:50Z</time>
      </trkpt>
      <trkpt lat="43.20776100" lon="-2.03930700">
        <ele>55.000000</ele>
        <time>2010-01-01T00:16:55Z</time>
      </trkpt>
      <trkpt lat="43.20785300" lon="-2.03921800">
        <ele>55.000000</ele>
        <time>2010-01-01T00:16:59Z</time>
      </trkpt>
      <trkpt lat="43.20794400" lon="-2.03912200">
        <ele>54.000000</ele>
        <time>2010-01-01T00:17:04Z</time>
      </trkpt>
      <trkpt lat="43.20802400" lon="-2.03901500">
        <ele>53.000000</ele>
        <time>2010-01-01T00:17:08Z</time>
      </trkpt>
      <trkpt lat="43.20813300" lon="-2.03883900">
        <ele>53.000000</ele>
        <time>2010-01-01T00:17:15Z</time>
      </trkpt>
      <trkpt lat="43.20819700" lon="-2.03870400">
        <ele>53.000000</ele>
        <time>2010-01-01T00:17:20Z</time>
      </trkpt>
      <trkpt lat="43.20828500" lon="-2.03850200">
        <ele>54.000000</ele>
        <time>2010-01-01T00:17:27Z</time>
      </trkpt>
      <trkpt lat="43.20834400" lon="-2.03836900">
        <ele>54.000000</ele>
        <time>2010-01-01T00:17:31Z</time>
      </trkpt>
      <trkpt lat="43.20842300" lon="-2.03814100">
        <ele>54.000000</ele>
        <time>2010-01-01T00:17:38Z</time>
      </trkpt>
      <trkpt lat="43.20847400" lon="-2.03800000">
        <ele>53.000000</ele>
        <time>2010-01-01T00:17:43Z</time>
      </trkpt>
      <trkpt lat="43.20852900" lon="-2.03785300">
        <ele>53.000000</ele>
        <time>2010-01-01T00:17:48Z</time>
      </trkpt>
      <trkpt lat="43.20858900" lon="-2.03771500">
        <ele>52.000000</ele>
        <time>2010-01-01T00:17:53Z</time>
      </trkpt>
      <trkpt lat="43.20865300" lon="-2.03757600">
        <ele>51.000000</ele>
        <time>2010-01-01T00:17:57Z</time>
      </trkpt>
      <trkpt lat="43.20872600" lon="-2.03745100">
        <ele>51.000000</ele>
        <time>2010-01-01T00:18:02Z</time>
      </trkpt>
      <trkpt lat="43.20880800" lon="-2.03733200">
        <ele>51.000000</ele>
        <time>2010-01-01T00:18:07Z</time>
      </trkpt>
      <trkpt lat="43.20894300" lon="-2.03717100">
        <ele>51.000000</ele>
        <time>2010-01-01T00:18:14Z</time>
      </trkpt>
      <trkpt lat="43.20903700" lon="-2.03708600">
        <ele>51.000000</ele>
        <time>2010-01-01T00:18:18Z</time>
      </trkpt>
      <trkpt lat="43.20913800" lon="-2.03700000">
        <ele>51.000000</ele>
        <time>2010-01-01T00:18:23Z</time>
      </trkpt>
      <trkpt lat="43.20929400" lon="-2.03687800">
        <ele>51.000000</ele>
        <time>2010-01-01T00:18:30Z</time>
      </trkpt>
      <trkpt lat="43.20938900" lon="-2.03679000">
        <ele>51.000000</ele>
        <time>2010-01-01T00:18:35Z</time>
      </trkpt>
      <trkpt lat="43.20952000" lon="-2.03663700">
        <ele>51.000000</ele>
        <time>2010-01-01T00:18:42Z</time>
      </trkpt>
      <trkpt lat="43.20959800" lon="-2.03652400">
        <ele>51.000000</ele>
        <time>2010-01-01T00:18:46Z</time>
      </trkpt>
      <trkpt lat="43.20966800" lon="-2.03639000">
        <ele>51.000000</ele>
        <time>2010-01-01T00:18:51Z</time>
      </trkpt>
      <trkpt lat="43.20972100" lon="-2.03624000">
        <ele>51.000000</ele>
        <time>2010-01-01T00:18:56Z</time>
      </trkpt>
      <trkpt lat="43.20978900" lon="-2.03602100">
        <ele>51.000000</ele>
        <time>2010-01-01T00:19:03Z</time>
      </trkpt>
      <trkpt lat="43.20982100" lon="-2.03587400">
        <ele>50.000000</ele>
        <time>2010-01-01T00:19:08Z</time>
      </trkpt>
      <trkpt lat="43.20985600" lon="-2.03572900">
        <ele>50.000000</ele>
        <time>2010-01-01T00:19:12Z</time>
      </trkpt>
      <trkpt lat="43.20989000" lon="-2.03557300">
        <ele>49.000000</ele>
        <time>2010-01-01T00:19:17Z</time>
      </trkpt>
      <trkpt lat="43.20989400" lon="-2.03534300">
        <ele>48.000000</ele>
        <time>2010-01-01T00:19:23Z</time>
      </trkpt>
      <trkpt lat="43.20987300" lon="-2.03518700">
        <ele>48.000000</ele>
        <time>2010-01-01T00:19:28Z</time>
      </trkpt>
      <trkpt lat="43.20980900" lon="-2.03494300">
        <ele>48.000000</ele>
        <time>2010-01-01T00:19:36Z</time>
      </trkpt>
      <trkpt lat="43.20975300" lon="-2.03476900">
        <ele>48.000000</ele>
        <time>2010-01-01T00:19:41Z</time>
      </trkpt>
      <trkpt lat="43.20969500" lon="-2.03459900">
        <ele>48.000000</ele>
        <time>2010-01-01T00:19:47Z</time>
      </trkpt>
      <trkpt lat="43.20960600" lon="-2.03443100">
        <ele>48.000000</ele>
        <time>2010-01-01T00:19:53Z</time>
      </trkpt>
      <trkpt lat="43.20954200" lon="-2.03428200">
        <ele>48.000000</ele>
        <time>2010-01-01T00:19:58Z</time>
      </trkpt>
      <trkpt lat="43.20942700" lon="-2.03404200">
        <ele>47.000000</ele>
        <time>2010-01-01T00:20:06Z</time>
      </trkpt>
      <trkpt lat="43.20934600" lon="-2.03390200">
        <ele>47.000000</ele>
        <time>2010-01-01T00:20:11Z</time>
      </trkpt>
      <trkpt lat="43.20926000" lon="-2.03377200">
        <ele>46.000000</ele>
        <time>2010-01-01T00:20:16Z</time>
      </trkpt>
      <trkpt lat="43.20912000" lon="-2.03359100">
        <ele>46.000000</ele>
        <time>2010-01-01T00:20:24Z</time>
      </trkpt>
      <trkpt lat="43.20902300" lon="-2.03347600">
        <ele>46.000000</ele>
        <time>2010-01-01T00:20:29Z</time>
      </trkpt>
      <trkpt lat="43.20892300" lon="-2.03335200">
        <ele>46.000000</ele>
        <time>2010-01-01T00:20:35Z</time>
      </trkpt>
      <trkpt lat="43.20882300" lon="-2.03321900">
        <ele>47.000000</ele>
        <time>2010-01-01T00:20:40Z</time>
      </trkpt>
      <trkpt lat="43.20872500" lon="-2.03309200">
        <ele>47.000000</ele>
        <time>2010-01-01T00:20:46Z</time>
      </trkpt>
      <trkpt lat="43.20858800" lon="-2.03288900">
        <ele>48.000000</ele>
        <time>2010-01-01T00:20:54Z</time>
      </trkpt>
      <trkpt lat="43.20850000" lon="-2.03276300">
        <ele>48.000000</ele>
        <time>2010-01-01T00:20:59Z</time>
      </trkpt>
      <trkpt lat="43.20839900" lon="-2.03263500">
        <ele>48.000000</ele>
        <time>2010-01-01T00:21:04Z</time>
      </trkpt>
      <trkpt lat="43.20824300" lon="-2.03242500">
        <ele>48.000000</ele>
        <time>2010-01-01T00:21:13Z</time>
      </trkpt>
      <trkpt lat="43.20813500" lon="-2.03230200">
        <ele>49.000000</ele>
        <time>2010-01-01T00:21:19Z</time>
      </trkpt>
      <trkpt lat="43.20811000" lon="-2.03215400">
        <ele>50.000000</ele>
        <time>2010-01-01T00:21:23Z</time>
      </trkpt>
      <trkpt lat="43.20817800" lon="-2.03191600">
        <ele>50.000000</ele>
        <time>2010-01-01T00:21:31Z</time>
      </trkpt>
      <trkpt lat="43.20826000" lon="-2.03177600">
        <ele>51.000000</ele>
        <time>2010-01-01T00:21:36Z</time>
      </trkpt>
      <trkpt lat="43.20839400" lon="-2.03157500">
        <ele>52.000000</ele>
        <time>2010-01-01T00:21:44Z</time>
      </trkpt>
      <trkpt lat="43.20852000" lon="-2.03139100">
        <ele>52.000000</ele>
        <time>2010-01-01T00:21:51Z</time>
      </trkpt>
      <trkpt lat="43.20864200" lon="-2.03122100">
        <ele>53.000000</ele>
        <time>2010-01-01T00:21:58Z</time>
      </trkpt>
      <trkpt lat="43.20872100" lon="-2.03110900">
        <ele>53.000000</ele>
        <time>2010-01-01T00:22:03Z</time>
      </trkpt>
      <trkpt lat="43.20883900" lon="-2.03094700">
        <ele>53.000000</ele>
        <time>2010-01-01T00:22:09Z</time>
      </trkpt>
      <trkpt lat="43.20891500" lon="-2.03082900">
        <ele>53.000000</ele>
        <time>2010-01-01T00:22:14Z</time>
      </trkpt>
      <trkpt lat="43.20900000" lon="-2.03072300">
        <ele>53.000000</ele>
        <time>2010-01-01T00:22:19Z</time>
      </trkpt>
      <trkpt lat="43.20912000" lon="-2.03054000">
        <ele>53.000000</ele>
        <time>2010-01-01T00:22:26Z</time>
      </trkpt>
      <trkpt lat="43.20924400" lon="-2.03037600">
        <ele>54.000000</ele>
        <time>2010-01-01T00:22:33Z</time>
      </trkpt>
      <trkpt lat="43.20932100" lon="-2.03025400">
        <ele>54.000000</ele>
        <time>2010-01-01T00:22:37Z</time>
      </trkpt>
      <trkpt lat="43.20940400" lon="-2.03013900">
        <ele>54.000000</ele>
        <time>2010-01-01T00:22:42Z</time>
      </trkpt>
      <trkpt lat="43.20948200" lon="-2.03003500">
        <ele>54.000000</ele>
        <time>2010-01-01T00:22:46Z</time>
      </trkpt>
      <trkpt lat="43.20956000" lon="-2.02993000">
        <ele>54.000000</ele>
        <time>2010-01-01T00:22:51Z</time>
      </trkpt>
      <trkpt lat="43.20963500" lon="-2.02981900">
        <ele>54.000000</ele>
        <time>2010-01-01T00:22:55Z</time>
      </trkpt>
      <trkpt lat="43.20971000" lon="-2.02971200">
        <ele>54.000000</ele>
        <time>2010-01-01T00:23:00Z</time>
      </trkpt>
      <trkpt lat="43.20982700" lon="-2.02955600">
        <ele>54.000000</ele>
        <time>2010-01-01T00:23:06Z</time>
      </trkpt>
      <trkpt lat="43.20989600" lon="-2.02945300">
        <ele>53.000000</ele>
        <time>2010-01-01T00:23:10Z</time>
      </trkpt>
      <trkpt lat="43.20996400" lon="-2.02933900">
        <ele>54.000000</ele>
        <time>2010-01-01T00:23:14Z</time>
      </trkpt>
      <trkpt lat="43.21007300" lon="-2.02917600">
        <ele>55.000000</ele>
        <time>2010-01-01T00:23:21Z</time>
      </trkpt>
      <trkpt lat="43.21014000" lon="-2.02906700">
        <ele>56.000000</ele>
        <time>2010-01-01T00:23:25Z</time>
      </trkpt>
      <trkpt lat="43.21021300" lon="-2.02896800">
        <ele>57.000000</ele>
        <time>2010-01-01T00:23:29Z</time>
      </trkpt>
      <trkpt lat="43.21031300" lon="-2.02880200">
        <ele>58.000000</ele>
        <time>2010-01-01T00:23:35Z</time>
      </trkpt>
      <trkpt lat="43.21037900" lon="-2.02869500">
        <ele>58.000000</ele>
        <time>2010-01-01T00:23:40Z</time>
      </trkpt>
      <trkpt lat="43.21044700" lon="-2.02858600">
        <ele>59.000000</ele>
        <time>2010-01-01T00:23:44Z</time>
      </trkpt>
      <trkpt lat="43.21051300" lon="-2.02847700">
        <ele>59.000000</ele>
        <time>2010-01-01T00:23:48Z</time>
      </trkpt>
      <trkpt lat="43.21057700" lon="-2.02836200">
        <ele>58.000000</ele>
        <time>2010-01-01T00:23:52Z</time>
      </trkpt>
      <trkpt lat="43.21067800" lon="-2.02819400">
        <ele>55.000000</ele>
        <time>2010-01-01T00:23:58Z</time>
      </trkpt>
      <trkpt lat="43.21074400" lon="-2.02807500">
        <ele>52.000000</ele>
        <time>2010-01-01T00:24:03Z</time>
      </trkpt>
      <trkpt lat="43.21080500" lon="-2.02795500">
        <ele>51.000000</ele>
        <time>2010-01-01T00:24:07Z</time>
      </trkpt>
      <trkpt lat="43.21088200" lon="-2.02776700">
        <ele>50.000000</ele>
        <time>2010-01-01T00:24:13Z</time>
      </trkpt>
      <trkpt lat="43.21093400" lon="-2.02764400">
        <ele>50.000000</ele>
        <time>2010-01-01T00:24:17Z</time>
      </trkpt>
      <trkpt lat="43.21098700" lon="-2.02752300">
        <ele>50.000000</ele>
        <time>2010-01-01T00:24:22Z</time>
      </trkpt>
      <trkpt lat="43.21107200" lon="-2.02734300">
        <ele>50.000000</ele>
        <time>2010-01-01T00:24:28Z</time>
      </trkpt>
      <trkpt lat="43.21112100" lon="-2.02722300">
        <ele>50.000000</ele>
        <time>2010-01-01T00:24:32Z</time>
      </trkpt>
      <trkpt lat="43.21117100" lon="-2.02709600">
        <ele>50.000000</ele>
        <time>2010-01-01T00:24:36Z</time>
      </trkpt>
      <trkpt lat="43.21122000" lon="-2.02696800">
        <ele>50.000000</ele>
        <time>2010-01-01T00:24:40Z</time>
      </trkpt>
      <trkpt lat="43.21128200" lon="-2.02685200">
        <ele>50.000000</ele>
        <time>2010-01-01T00:24:45Z</time>
      </trkpt>
      <trkpt lat="43.21136500" lon="-2.02666900">
        <ele>51.000000</ele>
        <time>2010-01-01T00:24:51Z</time>
      </trkpt>
      <trkpt lat="43.21141600" lon="-2.02653900">
        <ele>51.000000</ele>
        <time>2010-01-01T00:24:55Z</time>
      </trkpt>
      <trkpt lat="43.21149700" lon="-2.02635100">
        <ele>50.000000</ele>
        <time>2010-01-01T00:25:01Z</time>
      </trkpt>
      <trkpt lat="43.21153800" lon="-2.02621100">
        <ele>50.000000</ele>
        <time>2010-01-01T00:25:06Z</time>
      </trkpt>
      <trkpt lat="43.21159400" lon="-2.02608800">
        <ele>49.000000</ele>
        <time>2010-01-01T00:25:10Z</time>
      </trkpt>
      <trkpt lat="43.21164100" lon="-2.02596800">
        <ele>49.000000</ele>
        <time>2010-01-01T00:25:14Z</time>
      </trkpt>
      <trkpt lat="43.21172500" lon="-2.02589300">
        <ele>48.000000</ele>
        <time>2010-01-01T00:25:18Z</time>
      </trkpt>
      <trkpt lat="43.21176100" lon="-2.02575400">
        <ele>47.000000</ele>
        <time>2010-01-01T00:25:22Z</time>
      </trkpt>
      <trkpt lat="43.21181800" lon="-2.02564800">
        <ele>47.000000</ele>
        <time>2010-01-01T00:25:26Z</time>
      </trkpt>
      <trkpt lat="43.21188900" lon="-2.02555500">
        <ele>47.000000</ele>
        <time>2010-01-01T00:25:30Z</time>
      </trkpt>
      <trkpt lat="43.21195800" lon="-2.02546000">
        <ele>47.000000</ele>
        <time>2010-01-01T00:25:34Z</time>
      </trkpt>
      <trkpt lat="43.21203000" lon="-2.02536200">
        <ele>47.000000</ele>
        <time>2010-01-01T00:25:38Z</time>
      </trkpt>
      <trkpt lat="43.21210600" lon="-2.02526600">
        <ele>48.000000</ele>
        <time>2010-01-01T00:25:42Z</time>
      </trkpt>
      <trkpt lat="43.21217300" lon="-2.02516200">
        <ele>48.000000</ele>
        <time>2010-01-01T00:25:46Z</time>
      </trkpt>
      <trkpt lat="43.21232200" lon="-2.02505600">
        <ele>47.000000</ele>
        <time>2010-01-01T00:25:53Z</time>
      </trkpt>
      <trkpt lat="43.21242100" lon="-2.02501600">
        <ele>47.000000</ele>
        <time>2010-01-01T00:25:57Z</time>
      </trkpt>
      <trkpt lat="43.21252800" lon="-2.02485200">
        <ele>46.000000</ele>
        <time>2010-01-01T00:26:04Z</time>
      </trkpt>
      <trkpt lat="43.21257000" lon="-2.02471600">
        <ele>45.000000</ele>
        <time>2010-01-01T00:26:08Z</time>
      </trkpt>
      <trkpt lat="43.21263900" lon="-2.02459000">
        <ele>45.000000</ele>
        <time>2010-01-01T00:26:13Z</time>
      </trkpt>
      <trkpt lat="43.21272000" lon="-2.02447200">
        <ele>45.000000</ele>
        <time>2010-01-01T00:26:17Z</time>
      </trkpt>
      <trkpt lat="43.21284600" lon="-2.02430400">
        <ele>44.000000</ele>
        <time>2010-01-01T00:26:24Z</time>
      </trkpt>
      <trkpt lat="43.21292800" lon="-2.02419700">
        <ele>44.000000</ele>
        <time>2010-01-01T00:26:29Z</time>
      </trkpt>
      <trkpt lat="43.21300600" lon="-2.02408600">
        <ele>44.000000</ele>
        <time>2010-01-01T00:26:33Z</time>
      </trkpt>
      <trkpt lat="43.21308300" lon="-2.02399400">
        <ele>44.000000</ele>
        <time>2010-01-01T00:26:37Z</time>
      </trkpt>
      <trkpt lat="43.21315600" lon="-2.02388600">
        <ele>44.000000</ele>
        <time>2010-01-01T00:26:42Z</time>
      </trkpt>
      <trkpt lat="43.21328400" lon="-2.02372100">
        <ele>45.000000</ele>
        <time>2010-01-01T00:26:49Z</time>
      </trkpt>
      <trkpt lat="43.21334700" lon="-2.02359500">
        <ele>46.000000</ele>
        <time>2010-01-01T00:26:53Z</time>
      </trkpt>
      <trkpt lat="43.21353200" lon="-2.02340500">
        <ele>46.000000</ele>
        <time>2010-01-01T00:27:02Z</time>
      </trkpt>
      <trkpt lat="43.21359200" lon="-2.02326800">
        <ele>46.000000</ele>
        <time>2010-01-01T00:27:07Z</time>
      </trkpt>
      <trkpt lat="43.21364300" lon="-2.02312800">
        <ele>45.000000</ele>
        <time>2010-01-01T00:27:12Z</time>
      </trkpt>
      <trkpt lat="43.21368700" lon="-2.02298900">
        <ele>46.000000</ele>
        <time>2010-01-01T00:27:16Z</time>
      </trkpt>
      <trkpt lat="43.21372400" lon="-2.02285400">
        <ele>47.000000</ele>
        <time>2010-01-01T00:27:20Z</time>
      </trkpt>
      <trkpt lat="43.21374100" lon="-2.02269100">
        <ele>47.000000</ele>
        <time>2010-01-01T00:27:25Z</time>
      </trkpt>
      <trkpt lat="43.21376100" lon="-2.02253200">
        <ele>47.000000</ele>
        <time>2010-01-01T00:27:30Z</time>
      </trkpt>
      <trkpt lat="43.21379400" lon="-2.02229200">
        <ele>47.000000</ele>
        <time>2010-01-01T00:27:37Z</time>
      </trkpt>
      <trkpt lat="43.21381600" lon="-2.02214400">
        <ele>47.000000</ele>
        <time>2010-01-01T00:27:41Z</time>
      </trkpt>
      <trkpt lat="43.21384100" lon="-2.02194100">
        <ele>45.000000</ele>
        <time>2010-01-01T00:27:47Z</time>
      </trkpt>
      <trkpt lat="43.21387500" lon="-2.02175300">
        <ele>45.000000</ele>
        <time>2010-01-01T00:27:53Z</time>
      </trkpt>
      <trkpt lat="43.21390100" lon="-2.02163400">
        <ele>45.000000</ele>
        <time>2010-01-01T00:27:57Z</time>
      </trkpt>
      <trkpt lat="43.21391000" lon="-2.02150300">
        <ele>45.000000</ele>
        <time>2010-01-01T00:28:00Z</time>
      </trkpt>
      <trkpt lat="43.21393000" lon="-2.02137100">
        <ele>46.000000</ele>
        <time>2010-01-01T00:28:04Z</time>
      </trkpt>
      <trkpt lat="43.21395100" lon="-2.02123800">
        <ele>47.000000</ele>
        <time>2010-01-01T00:28:08Z</time>
      </trkpt>
      <trkpt lat="43.21393300" lon="-2.02105300">
        <ele>49.000000</ele>
        <time>2010-01-01T00:28:14Z</time>
      </trkpt>
      <trkpt lat="43.21383000" lon="-2.02104800">
        <ele>48.000000</ele>
        <time>2010-01-01T00:28:18Z</time>
      </trkpt>
      <trkpt lat="43.21373100" lon="-2.02110600">
        <ele>47.000000</ele>
        <time>2010-01-01T00:28:22Z</time>
      </trkpt>
      <trkpt lat="43.21359800" lon="-2.02111300">
        <ele>46.000000</ele>
        <time>2010-01-01T00:28:28Z</time>
      </trkpt>
      <trkpt lat="43.21352100" lon="-2.02104400">
        <ele>47.000000</ele>
        <time>2010-01-01T00:28:31Z</time>
      </trkpt>
      <trkpt lat="43.21338500" lon="-2.02088700">
        <ele>49.000000</ele>
        <time>2010-01-01T00:28:38Z</time>
      </trkpt>
      <trkpt lat="43.21327200" lon="-2.02059000">
        <ele>51.000000</ele>
        <time>2010-01-01T00:28:48Z</time>
      </trkpt>
      <trkpt lat="43.21325200" lon="-2.02040300">
        <ele>53.000000</ele>
        <time>2010-01-01T00:28:54Z</time>
      </trkpt>
      <trkpt lat="43.21328400" lon="-2.02022800">
        <ele>55.000000</ele>
        <time>2010-01-01T00:28:59Z</time>
      </trkpt>
      <trkpt lat="43.21332900" lon="-2.02005300">
        <ele>58.000000</ele>
        <time>2010-01-01T00:29:04Z</time>
      </trkpt>
      <trkpt lat="43.21322800" lon="-2.01982100">
        <ele>60.000000</ele>
        <time>2010-01-01T00:29:12Z</time>
      </trkpt>
      <trkpt lat="43.21316500" lon="-2.01968400">
        <ele>62.000000</ele>
        <time>2010-01-01T00:29:17Z</time>
      </trkpt>
      <trkpt lat="43.21312700" lon="-2.01955900">
        <ele>63.000000</ele>
        <time>2010-01-01T00:29:21Z</time>
      </trkpt>
      <trkpt lat="43.21309800" lon="-2.01943000">
        <ele>64.000000</ele>
        <time>2010-01-01T00:29:25Z</time>
      </trkpt>
      <trkpt lat="43.21311400" lon="-2.01927100">
        <ele>63.000000</ele>
        <time>2010-01-01T00:29:30Z</time>
      </trkpt>
      <trkpt lat="43.21311600" lon="-2.01909700">
        <ele>63.000000</ele>
        <time>2010-01-01T00:29:35Z</time>
      </trkpt>
      <trkpt lat="43.21312700" lon="-2.01891600">
        <ele>62.000000</ele>
        <time>2010-01-01T00:29:40Z</time>
      </trkpt>
      <trkpt lat="43.21312400" lon="-2.01878900">
        <ele>62.000000</ele>
        <time>2010-01-01T00:29:44Z</time>
      </trkpt>
      <trkpt lat="43.21644000" lon="-2.01975000">
        <ele>67.000000</ele>
        <time>2010-01-01T00:00:00Z</time>
      </trkpt>
      <trkpt lat="43.21644000" lon="-2.01962000">
        <ele>70.000000</ele>
        <time>2010-01-01T00:00:03Z</time>
      </trkpt>
      <trkpt lat="43.21644000" lon="-2.01951000">
        <ele>72.000000</ele>
        <time>2010-01-01T00:00:07Z</time>
      </trkpt>
      <trkpt lat="43.21642000" lon="-2.01951000">
        <ele>72.000000</ele>
        <time>2010-01-01T00:00:07Z</time>
      </trkpt>
      <trkpt lat="43.21642000" lon="-2.01953000">
        <ele>71.000000</ele>
        <time>2010-01-01T00:00:08Z</time>
      </trkpt>
      <trkpt lat="43.21594000" lon="-2.01957000">
        <ele>71.000000</ele>
        <time>2010-01-01T00:00:27Z</time>
      </trkpt>
      <trkpt lat="43.21515000" lon="-2.01949000">
        <ele>77.000000</ele>
        <time>2010-01-01T00:00:59Z</time>
      </trkpt>
      <trkpt lat="43.21393000" lon="-2.01927000">
        <ele>72.000000</ele>
        <time>2010-01-01T00:01:48Z</time>
      </trkpt>
      <trkpt lat="43.21386000" lon="-2.01927000">
        <ele>72.000000</ele>
        <time>2010-01-01T00:01:51Z</time>
      </trkpt>
      <trkpt lat="43.21376000" lon="-2.01921000">
        <ele>72.000000</ele>
        <time>2010-01-01T00:01:55Z</time>
      </trkpt>
      <trkpt lat="43.21346000" lon="-2.01904000">
        <ele>69.000000</ele>
        <time>2010-01-01T00:02:08Z</time>
      </trkpt>
      <trkpt lat="43.21335000" lon="-2.01852000">
        <ele>72.000000</ele>
        <time>2010-01-01T00:02:24Z</time>
      </trkpt>
      <trkpt lat="43.21339000" lon="-2.01812000">
        <ele>80.000000</ele>
        <time>2010-01-01T00:02:36Z</time>
      </trkpt>
      <trkpt lat="43.21339000" lon="-2.01799000">
        <ele>82.000000</ele>
        <time>2010-01-01T00:02:40Z</time>
      </trkpt>
      <trkpt lat="43.21337000" lon="-2.01794000">
        <ele>82.000000</ele>
        <time>2010-01-01T00:02:41Z</time>
      </trkpt>
      <trkpt lat="43.21331000" lon="-2.01782000">
        <ele>82.000000</ele>
        <time>2010-01-01T00:02:46Z</time>
      </trkpt>
      <trkpt lat="43.21322000" lon="-2.01736000">
        <ele>83.000000</ele>
        <time>2010-01-01T00:02:59Z</time>
      </trkpt>
      <trkpt lat="43.21309000" lon="-2.01691000">
        <ele>80.000000</ele>
        <time>2010-01-01T00:03:14Z</time>
      </trkpt>
      <trkpt lat="43.21292000" lon="-2.01610000">
        <ele>83.000000</ele>
        <time>2010-01-01T00:03:38Z</time>
      </trkpt>
      <trkpt lat="43.21296000" lon="-2.01545000">
        <ele>87.000000</ele>
        <time>2010-01-01T00:03:57Z</time>
      </trkpt>
      <trkpt lat="43.21298000" lon="-2.01524000">
        <ele>86.000000</ele>
        <time>2010-01-01T00:04:03Z</time>
      </trkpt>
      <trkpt lat="43.21305000" lon="-2.01488000">
        <ele>85.000000</ele>
        <time>2010-01-01T00:04:14Z</time>
      </trkpt>
      <trkpt lat="43.21305000" lon="-2.01458000">
        <ele>84.000000</ele>
        <time>2010-01-01T00:04:23Z</time>
      </trkpt>
      <trkpt lat="43.21301000" lon="-2.01436000">
        <ele>85.000000</ele>
        <time>2010-01-01T00:04:30Z</time>
      </trkpt>
      <trkpt lat="43.21294000" lon="-2.01417000">
        <ele>86.000000</ele>
        <time>2010-01-01T00:04:36Z</time>
      </trkpt>
      <trkpt lat="43.21290000" lon="-2.01406000">
        <ele>88.000000</ele>
        <time>2010-01-01T00:04:39Z</time>
      </trkpt>
      <trkpt lat="43.21247000" lon="-2.01286000">
        <ele>93.000000</ele>
        <time>2010-01-01T00:05:18Z</time>
      </trkpt>
      <trkpt lat="43.21202000" lon="-2.01252000">
        <ele>93.000000</ele>
        <time>2010-01-01T00:05:39Z</time>
      </trkpt>
      <trkpt lat="43.21200000" lon="-2.01254000">
        <ele>92.000000</ele>
        <time>2010-01-01T00:05:40Z</time>
      </trkpt>
      <trkpt lat="43.21180000" lon="-2.01256000">
        <ele>93.000000</ele>
        <time>2010-01-01T00:05:48Z</time>
      </trkpt>
      <trkpt lat="43.21176000" lon="-2.01256000">
        <ele>93.000000</ele>
        <time>2010-01-01T00:05:50Z</time>
      </trkpt>
      <trkpt lat="43.21170000" lon="-2.01258000">
        <ele>93.000000</ele>
        <time>2010-01-01T00:05:52Z</time>
      </trkpt>
      <trkpt lat="43.21135000" lon="-2.01275000">
        <ele>92.000000</ele>
        <time>2010-01-01T00:06:07Z</time>
      </trkpt>
      <trkpt lat="43.21086000" lon="-2.01299000">
        <ele>84.000000</ele>
        <time>2010-01-01T00:06:28Z</time>
      </trkpt>
      <trkpt lat="43.21073000" lon="-2.01301000">
        <ele>83.000000</ele>
        <time>2010-01-01T00:06:33Z</time>
      </trkpt>
      <trkpt lat="43.21011000" lon="-2.01277000">
        <ele>86.000000</ele>
        <time>2010-01-01T00:06:59Z</time>
      </trkpt>
      <trkpt lat="43.20961000" lon="-2.01247000">
        <ele>84.000000</ele>
        <time>2010-01-01T00:07:21Z</time>
      </trkpt>
      <trkpt lat="43.20901000" lon="-2.01191000">
        <ele>84.000000</ele>
        <time>2010-01-01T00:07:50Z</time>
      </trkpt>
      <trkpt lat="43.20891000" lon="-2.01172000">
        <ele>84.000000</ele>
        <time>2010-01-01T00:07:57Z</time>
      </trkpt>
      <trkpt lat="43.20854000" lon="-2.01099000">
        <ele>92.000000</ele>
        <time>2010-01-01T00:08:22Z</time>
      </trkpt>
      <trkpt lat="43.20839000" lon="-2.01080000">
        <ele>92.000000</ele>
        <time>2010-01-01T00:08:31Z</time>
      </trkpt>
      <trkpt lat="43.20783000" lon="-2.01015000">
        <ele>91.000000</ele>
        <time>2010-01-01T00:09:00Z</time>
      </trkpt>
      <trkpt lat="43.20762000" lon="-2.00994000">
        <ele>90.000000</ele>
        <time>2010-01-01T00:09:10Z</time>
      </trkpt>
      <trkpt lat="43.20749000" lon="-2.00981000">
        <ele>89.000000</ele>
        <time>2010-01-01T00:09:17Z</time>
      </trkpt>
      <trkpt lat="43.20723000" lon="-2.00949000">
        <ele>90.000000</ele>
        <time>2010-01-01T00:09:31Z</time>
      </trkpt>
      <trkpt lat="43.20659000" lon="-2.00878000">
        <ele>81.000000</ele>
        <time>2010-01-01T00:10:04Z</time>
      </trkpt>
      <trkpt lat="43.20605000" lon="-2.00822000">
        <ele>101.00000</ele>
        <time>2010-01-01T00:10:31Z</time>
      </trkpt>
      <trkpt lat="43.20599000" lon="-2.00816000">
        <ele>105.00000</ele>
        <time>2010-01-01T00:10:34Z</time>
      </trkpt>
      <trkpt lat="43.20580000" lon="-2.00809000">
        <ele>114.00000</ele>
        <time>2010-01-01T00:10:42Z</time>
      </trkpt>
      <trkpt lat="43.20311000" lon="-2.00782000">
        <ele>106.00000</ele>
        <time>2010-01-01T00:12:30Z</time>
      </trkpt>
      <trkpt lat="43.20251000" lon="-2.00809000">
        <ele>109.00000</ele>
        <time>2010-01-01T00:12:55Z</time>
      </trkpt>
      <trkpt lat="43.20245000" lon="-2.00818000">
        <ele>110.00000</ele>
        <time>2010-01-01T00:12:59Z</time>
      </trkpt>
      <trkpt lat="43.20236000" lon="-2.00831000">
        <ele>111.00000</ele>
        <time>2010-01-01T00:13:04Z</time>
      </trkpt>
      <trkpt lat="43.20232000" lon="-2.00842000">
        <ele>110.00000</ele>
        <time>2010-01-01T00:13:07Z</time>
      </trkpt>
      <trkpt lat="43.20221000" lon="-2.00865000">
        <ele>107.00000</ele>
        <time>2010-01-01T00:13:15Z</time>
      </trkpt>
      <trkpt lat="43.20200000" lon="-2.00900000">
        <ele>109.00000</ele>
        <time>2010-01-01T00:13:29Z</time>
      </trkpt>
      <trkpt lat="43.20193000" lon="-2.00915000">
        <ele>108.00000</ele>
        <time>2010-01-01T00:13:34Z</time>
      </trkpt>
      <trkpt lat="43.20183000" lon="-2.00936000">
        <ele>106.00000</ele>
        <time>2010-01-01T00:13:41Z</time>
      </trkpt>
      <trkpt lat="43.20161000" lon="-2.00975000">
        <ele>101.00000</ele>
        <time>2010-01-01T00:13:55Z</time>
      </trkpt>
      <trkpt lat="43.20131000" lon="-2.01011000">
        <ele>101.00000</ele>
        <time>2010-01-01T00:14:11Z</time>
      </trkpt>
      <trkpt lat="43.20092000" lon="-2.01050000">
        <ele>107.00000</ele>
        <time>2010-01-01T00:14:31Z</time>
      </trkpt>
      <trkpt lat="43.20028000" lon="-2.01088000">
        <ele>105.00000</ele>
        <time>2010-01-01T00:14:59Z</time>
      </trkpt>
      <trkpt lat="43.19929000" lon="-2.01114000">
        <ele>103.00000</ele>
        <time>2010-01-01T00:15:39Z</time>
      </trkpt>
      <trkpt lat="43.19895000" lon="-2.01123000">
        <ele>106.00000</ele>
        <time>2010-01-01T00:15:53Z</time>
      </trkpt>
      <trkpt lat="43.19886000" lon="-2.01123000">
        <ele>107.00000</ele>
        <time>2010-01-01T00:15:56Z</time>
      </trkpt>
      <trkpt lat="43.19839000" lon="-2.01103000">
        <ele>108.00000</ele>
        <time>2010-01-01T00:16:16Z</time>
      </trkpt>
      <trkpt lat="43.19768000" lon="-2.01069000">
        <ele>113.00000</ele>
        <time>2010-01-01T00:16:46Z</time>
      </trkpt>
      <trkpt lat="43.19708000" lon="-2.01043000">
        <ele>120.00000</ele>
        <time>2010-01-01T00:17:11Z</time>
      </trkpt>
      <trkpt lat="43.19657000" lon="-2.01013000">
        <ele>119.00000</ele>
        <time>2010-01-01T00:17:34Z</time>
      </trkpt>
      <trkpt lat="43.19635000" lon="-2.00998000">
        <ele>117.00000</ele>
        <time>2010-01-01T00:17:44Z</time>
      </trkpt>
      <trkpt lat="43.19603000" lon="-2.00979000">
        <ele>118.00000</ele>
        <time>2010-01-01T00:17:57Z</time>
      </trkpt>
      <trkpt lat="43.19571000" lon="-2.00962000">
        <ele>120.00000</ele>
        <time>2010-01-01T00:18:11Z</time>
      </trkpt>
      <trkpt lat="43.19550000" lon="-2.00947000">
        <ele>122.00000</ele>
        <time>2010-01-01T00:18:21Z</time>
      </trkpt>
      <trkpt lat="43.19515000" lon="-2.00921000">
        <ele>121.00000</ele>
        <time>2010-01-01T00:18:37Z</time>
      </trkpt>
      <trkpt lat="43.19494000" lon="-2.00904000">
        <ele>120.00000</ele>
        <time>2010-01-01T00:18:46Z</time>
      </trkpt>
      <trkpt lat="43.19483000" lon="-2.00897000">
        <ele>120.00000</ele>
        <time>2010-01-01T00:18:51Z</time>
      </trkpt>
      <trkpt lat="43.19436000" lon="-2.00863000">
        <ele>123.00000</ele>
        <time>2010-01-01T00:19:13Z</time>
      </trkpt>
      <trkpt lat="43.19393000" lon="-2.00833000">
        <ele>121.00000</ele>
        <time>2010-01-01T00:19:32Z</time>
      </trkpt>
      <trkpt lat="43.19382000" lon="-2.00824000">
        <ele>123.00000</ele>
        <time>2010-01-01T00:19:37Z</time>
      </trkpt>
      <trkpt lat="43.19367000" lon="-2.00816000">
        <ele>120.00000</ele>
        <time>2010-01-01T00:19:43Z</time>
      </trkpt>
      <trkpt lat="43.19309000" lon="-2.00764000">
        <ele>115.00000</ele>
        <time>2010-01-01T00:20:11Z</time>
      </trkpt>
      <trkpt lat="43.19275000" lon="-2.00700000">
        <ele>124.00000</ele>
        <time>2010-01-01T00:20:34Z</time>
      </trkpt>
      <trkpt lat="43.19245000" lon="-2.00642000">
        <ele>125.00000</ele>
        <time>2010-01-01T00:20:55Z</time>
      </trkpt>
      <trkpt lat="43.19217000" lon="-2.00593000">
        <ele>129.00000</ele>
        <time>2010-01-01T00:21:13Z</time>
      </trkpt>
      <trkpt lat="43.19196000" lon="-2.00552000">
        <ele>140.00000</ele>
        <time>2010-01-01T00:21:28Z</time>
      </trkpt>
      <trkpt lat="43.19185000" lon="-2.00541000">
        <ele>143.00000</ele>
        <time>2010-01-01T00:21:33Z</time>
      </trkpt>
      <trkpt lat="43.19168000" lon="-2.00524000">
        <ele>151.00000</ele>
        <time>2010-01-01T00:21:42Z</time>
      </trkpt>
      <trkpt lat="43.19088000" lon="-2.00526000">
        <ele>147.00000</ele>
        <time>2010-01-01T00:22:14Z</time>
      </trkpt>
      <trkpt lat="43.19030000" lon="-2.00528000">
        <ele>140.00000</ele>
        <time>2010-01-01T00:22:37Z</time>
      </trkpt>
      <trkpt lat="43.19013000" lon="-2.00528000">
        <ele>140.00000</ele>
        <time>2010-01-01T00:22:44Z</time>
      </trkpt>
      <trkpt lat="43.18994000" lon="-2.00533000">
        <ele>138.00000</ele>
        <time>2010-01-01T00:22:51Z</time>
      </trkpt>
      <trkpt lat="43.18966000" lon="-2.00533000">
        <ele>138.00000</ele>
        <time>2010-01-01T00:23:03Z</time>
      </trkpt>
      <trkpt lat="43.18923000" lon="-2.00531000">
        <ele>143.00000</ele>
        <time>2010-01-01T00:23:20Z</time>
      </trkpt>
      <trkpt lat="43.18876000" lon="-2.00496000">
        <ele>140.00000</ele>
        <time>2010-01-01T00:23:41Z</time>
      </trkpt>
      <trkpt lat="43.18831000" lon="-2.00468000">
        <ele>141.00000</ele>
        <time>2010-01-01T00:24:01Z</time>
      </trkpt>
      <trkpt lat="43.18786000" lon="-2.00430000">
        <ele>143.00000</ele>
        <time>2010-01-01T00:24:22Z</time>
      </trkpt>
      <trkpt lat="43.18760000" lon="-2.00382000">
        <ele>151.00000</ele>
        <time>2010-01-01T00:24:40Z</time>
      </trkpt>
      <trkpt lat="43.18728000" lon="-2.00322000">
        <ele>151.00000</ele>
        <time>2010-01-01T00:25:01Z</time>
      </trkpt>
      <trkpt lat="43.18689000" lon="-2.00264000">
        <ele>149.00000</ele>
        <time>2010-01-01T00:25:24Z</time>
      </trkpt>
      <trkpt lat="43.18666000" lon="-2.00209000">
        <ele>151.00000</ele>
        <time>2010-01-01T00:25:43Z</time>
      </trkpt>
      <trkpt lat="43.18653000" lon="-2.00142000">
        <ele>150.00000</ele>
        <time>2010-01-01T00:26:03Z</time>
      </trkpt>
      <trkpt lat="43.18666000" lon="-2.00063000">
        <ele>150.00000</ele>
        <time>2010-01-01T00:26:27Z</time>
      </trkpt>
      <trkpt lat="43.18691000" lon="-2.00009000">
        <ele>160.00000</ele>
        <time>2010-01-01T00:26:45Z</time>
      </trkpt>
      <trkpt lat="43.18715000" lon="-1.99949000">
        <ele>157.00000</ele>
        <time>2010-01-01T00:27:05Z</time>
      </trkpt>
      <trkpt lat="43.18730000" lon="-1.99904000">
        <ele>159.00000</ele>
        <time>2010-01-01T00:27:20Z</time>
      </trkpt>
      <trkpt lat="43.18732000" lon="-1.99895000">
        <ele>159.00000</ele>
        <time>2010-01-01T00:27:23Z</time>
      </trkpt>
      <trkpt lat="43.18741000" lon="-1.99863000">
        <ele>160.00000</ele>
        <time>2010-01-01T00:27:33Z</time>
      </trkpt>
      <trkpt lat="43.18749000" lon="-1.99852000">
        <ele>167.00000</ele>
        <time>2010-01-01T00:27:37Z</time>
      </trkpt>
      <trkpt lat="43.18764000" lon="-1.99833000">
        <ele>181.00000</ele>
        <time>2010-01-01T00:27:45Z</time>
      </trkpt>
      <trkpt lat="43.18766000" lon="-1.99803000">
        <ele>184.00000</ele>
        <time>2010-01-01T00:27:54Z</time>
      </trkpt>
      <trkpt lat="43.18764000" lon="-1.99745000">
        <ele>166.00000</ele>
        <time>2010-01-01T00:28:11Z</time>
      </trkpt>
      <trkpt lat="43.18760000" lon="-1.99700000">
        <ele>158.00000</ele>
        <time>2010-01-01T00:28:24Z</time>
      </trkpt>
      <trkpt lat="43.18756000" lon="-1.99674000">
        <ele>155.00000</ele>
        <time>2010-01-01T00:28:32Z</time>
      </trkpt>
      <trkpt lat="43.18736000" lon="-1.99606000">
        <ele>154.00000</ele>
        <time>2010-01-01T00:28:53Z</time>
      </trkpt>
      <trkpt lat="43.18734000" lon="-1.99599000">
        <ele>154.00000</ele>
        <time>2010-01-01T00:28:56Z</time>
      </trkpt>
      <trkpt lat="43.18721000" lon="-1.99578000">
        <ele>152.00000</ele>
        <time>2010-01-01T00:29:04Z</time>
      </trkpt>
      <trkpt lat="43.18668000" lon="-1.99548000">
        <ele>155.00000</ele>
        <time>2010-01-01T00:29:27Z</time>
      </trkpt>
      <trkpt lat="43.18620000" lon="-1.99522000">
        <ele>159.00000</ele>
        <time>2010-01-01T00:29:47Z</time>
      </trkpt>
      <trkpt lat="43.18605000" lon="-1.99518000">
        <ele>160.00000</ele>
        <time>2010-01-01T00:29:53Z</time>
      </trkpt>
      <trkpt lat="43.18560000" lon="-1.99524000">
        <ele>163.00000</ele>
        <time>2010-01-01T00:30:12Z</time>
      </trkpt>
      <trkpt lat="43.18520000" lon="-1.99548000">
        <ele>160.00000</ele>
        <time>2010-01-01T00:30:29Z</time>
      </trkpt>
      <trkpt lat="43.18490000" lon="-1.99571000">
        <ele>158.00000</ele>
        <time>2010-01-01T00:30:43Z</time>
      </trkpt>
      <trkpt lat="43.18447000" lon="-1.99599000">
        <ele>161.00000</ele>
        <time>2010-01-01T00:31:02Z</time>
      </trkpt>
      <trkpt lat="43.18404000" lon="-1.99614000">
        <ele>162.00000</ele>
        <time>2010-01-01T00:31:20Z</time>
      </trkpt>
      <trkpt lat="43.18354000" lon="-1.99595000">
        <ele>168.00000</ele>
        <time>2010-01-01T00:31:40Z</time>
      </trkpt>
      <trkpt lat="43.18303000" lon="-1.99550000">
        <ele>172.00000</ele>
        <time>2010-01-01T00:32:05Z</time>
      </trkpt>
      <trkpt lat="43.18275000" lon="-1.99526000">
        <ele>175.00000</ele>
        <time>2010-01-01T00:32:18Z</time>
      </trkpt>
      <trkpt lat="43.18223000" lon="-1.99490000">
        <ele>169.00000</ele>
        <time>2010-01-01T00:32:41Z</time>
      </trkpt>
      <trkpt lat="43.18181000" lon="-1.99443000">
        <ele>172.00000</ele>
        <time>2010-01-01T00:33:03Z</time>
      </trkpt>
      <trkpt lat="43.18148000" lon="-1.99404000">
        <ele>172.00000</ele>
        <time>2010-01-01T00:33:20Z</time>
      </trkpt>
      <trkpt lat="43.18116000" lon="-1.99368000">
        <ele>174.00000</ele>
        <time>2010-01-01T00:33:37Z</time>
      </trkpt>
      <trkpt lat="43.18108000" lon="-1.99359000">
        <ele>175.00000</ele>
        <time>2010-01-01T00:33:41Z</time>
      </trkpt>
      <trkpt lat="43.18071000" lon="-1.99318000">
        <ele>177.00000</ele>
        <time>2010-01-01T00:34:00Z</time>
      </trkpt>
      <trkpt lat="43.18058000" lon="-1.99303000">
        <ele>177.00000</ele>
        <time>2010-01-01T00:34:07Z</time>
      </trkpt>
      <trkpt lat="43.18028000" lon="-1.99273000">
        <ele>177.00000</ele>
        <time>2010-01-01T00:34:22Z</time>
      </trkpt>
      <trkpt lat="43.17983000" lon="-1.99222000">
        <ele>180.00000</ele>
        <time>2010-01-01T00:34:45Z</time>
      </trkpt>
      <trkpt lat="43.17940000" lon="-1.99185000">
        <ele>183.00000</ele>
        <time>2010-01-01T00:35:05Z</time>
      </trkpt>
      <trkpt lat="43.17934000" lon="-1.99183000">
        <ele>182.00000</ele>
        <time>2010-01-01T00:35:08Z</time>
      </trkpt>
      <trkpt lat="43.17884000" lon="-1.99149000">
        <ele>183.00000</ele>
        <time>2010-01-01T00:35:30Z</time>
      </trkpt>
      <trkpt lat="43.17835000" lon="-1.99112000">
        <ele>190.00000</ele>
        <time>2010-01-01T00:35:53Z</time>
      </trkpt>
      <trkpt lat="43.17788000" lon="-1.99080000">
        <ele>191.00000</ele>
        <time>2010-01-01T00:36:14Z</time>
      </trkpt>
      <trkpt lat="43.17769000" lon="-1.99063000">
        <ele>188.00000</ele>
        <time>2010-01-01T00:36:23Z</time>
      </trkpt>
      <trkpt lat="43.17758000" lon="-1.99048000">
        <ele>189.00000</ele>
        <time>2010-01-01T00:36:29Z</time>
      </trkpt>
      <trkpt lat="43.17749000" lon="-1.99009000">
        <ele>193.00000</ele>
        <time>2010-01-01T00:36:41Z</time>
      </trkpt>
      <trkpt lat="43.17749000" lon="-1.98975000">
        <ele>195.00000</ele>
        <time>2010-01-01T00:36:51Z</time>
      </trkpt>
      <trkpt lat="43.17749000" lon="-1.98964000">
        <ele>195.00000</ele>
        <time>2010-01-01T00:36:54Z</time>
      </trkpt>
      <trkpt lat="43.17749000" lon="-1.98947000">
        <ele>196.00000</ele>
        <time>2010-01-01T00:36:59Z</time>
      </trkpt>
      <trkpt lat="43.17766000" lon="-1.98878000">
        <ele>196.00000</ele>
        <time>2010-01-01T00:37:20Z</time>
      </trkpt>
      <trkpt lat="43.17747000" lon="-1.98838000">
        <ele>187.00000</ele>
        <time>2010-01-01T00:37:34Z</time>
      </trkpt>
      <trkpt lat="43.17736000" lon="-1.98780000">
        <ele>195.00000</ele>
        <time>2010-01-01T00:37:52Z</time>
      </trkpt>
      <trkpt lat="43.17715000" lon="-1.98704000">
        <ele>203.00000</ele>
        <time>2010-01-01T00:38:15Z</time>
      </trkpt>
      <trkpt lat="43.17704000" lon="-1.98666000">
        <ele>204.00000</ele>
        <time>2010-01-01T00:38:27Z</time>
      </trkpt>
      <trkpt lat="43.17685000" lon="-1.98606000">
        <ele>198.00000</ele>
        <time>2010-01-01T00:38:46Z</time>
      </trkpt>
      <trkpt lat="43.17651000" lon="-1.98550000">
        <ele>199.00000</ele>
        <time>2010-01-01T00:39:08Z</time>
      </trkpt>
      <trkpt lat="43.17614000" lon="-1.98509000">
        <ele>204.00000</ele>
        <time>2010-01-01T00:39:27Z</time>
      </trkpt>
      <trkpt lat="43.17599000" lon="-1.98496000">
        <ele>206.00000</ele>
        <time>2010-01-01T00:39:34Z</time>
      </trkpt>
      <trkpt lat="43.17588000" lon="-1.98490000">
        <ele>208.00000</ele>
        <time>2010-01-01T00:39:39Z</time>
      </trkpt>
      <trkpt lat="43.17556000" lon="-1.98488000">
        <ele>206.00000</ele>
        <time>2010-01-01T00:39:51Z</time>
      </trkpt>
      <trkpt lat="43.17541000" lon="-1.98492000">
        <ele>204.00000</ele>
        <time>2010-01-01T00:39:58Z</time>
      </trkpt>
      <trkpt lat="43.17498000" lon="-1.98505000">
        <ele>198.00000</ele>
        <time>2010-01-01T00:40:15Z</time>
      </trkpt>
      <trkpt lat="43.17475000" lon="-1.98511000">
        <ele>198.00000</ele>
        <time>2010-01-01T00:40:25Z</time>
      </trkpt>
      <trkpt lat="43.17455000" lon="-1.98516000">
        <ele>197.00000</ele>
        <time>2010-01-01T00:40:33Z</time>
      </trkpt>
      <trkpt lat="43.17453000" lon="-1.98518000">
        <ele>196.00000</ele>
        <time>2010-01-01T00:40:34Z</time>
      </trkpt>
      <trkpt lat="43.17412000" lon="-1.98522000">
        <ele>200.00000</ele>
        <time>2010-01-01T00:40:50Z</time>
      </trkpt>
      <trkpt lat="43.17384000" lon="-1.98507000">
        <ele>200.00000</ele>
        <time>2010-01-01T00:41:02Z</time>
      </trkpt>
      <trkpt lat="43.17374000" lon="-1.98488000">
        <ele>200.00000</ele>
        <time>2010-01-01T00:41:09Z</time>
      </trkpt>
      <trkpt lat="43.17352000" lon="-1.98421000">
        <ele>200.00000</ele>
        <time>2010-01-01T00:41:30Z</time>
      </trkpt>
      <trkpt lat="43.17372000" lon="-1.98380000">
        <ele>200.00000</ele>
        <time>2010-01-01T00:41:45Z</time>
      </trkpt>
      <trkpt lat="43.17382000" lon="-1.98383000">
        <ele>201.00000</ele>
        <time>2010-01-01T00:41:49Z</time>
      </trkpt>
      <trkpt lat="43.17408000" lon="-1.98387000">
        <ele>206.00000</ele>
        <time>2010-01-01T00:41:59Z</time>
      </trkpt>
      <trkpt lat="43.17485000" lon="-1.98372000">
        <ele>209.00000</ele>
        <time>2010-01-01T00:42:31Z</time>
      </trkpt>
      <trkpt lat="43.17505000" lon="-1.98355000">
        <ele>207.00000</ele>
        <time>2010-01-01T00:42:40Z</time>
      </trkpt>
      <trkpt lat="43.17535000" lon="-1.98312000">
        <ele>208.00000</ele>
        <time>2010-01-01T00:42:57Z</time>
      </trkpt>
      <trkpt lat="43.17548000" lon="-1.98275000">
        <ele>210.00000</ele>
        <time>2010-01-01T00:43:09Z</time>
      </trkpt>
      <trkpt lat="43.17550000" lon="-1.98267000">
        <ele>210.00000</ele>
        <time>2010-01-01T00:43:12Z</time>
      </trkpt>
      <trkpt lat="43.17545000" lon="-1.98207000">
        <ele>213.00000</ele>
        <time>2010-01-01T00:43:29Z</time>
      </trkpt>
      <trkpt lat="43.17533000" lon="-1.98172000">
        <ele>215.00000</ele>
        <time>2010-01-01T00:43:41Z</time>
      </trkpt>
      <trkpt lat="43.17507000" lon="-1.98129000">
        <ele>211.00000</ele>
        <time>2010-01-01T00:43:57Z</time>
      </trkpt>
      <trkpt lat="43.17472000" lon="-1.98067000">
        <ele>210.00000</ele>
        <time>2010-01-01T00:44:20Z</time>
      </trkpt>
      <trkpt lat="43.17460000" lon="-1.98020000">
        <ele>221.00000</ele>
        <time>2010-01-01T00:44:34Z</time>
      </trkpt>
      <trkpt lat="43.17460000" lon="-1.98009000">
        <ele>225.00000</ele>
        <time>2010-01-01T00:44:38Z</time>
      </trkpt>
      <trkpt lat="43.17481000" lon="-1.97896000">
        <ele>243.00000</ele>
        <time>2010-01-01T00:45:12Z</time>
      </trkpt>
      <trkpt lat="43.17487000" lon="-1.97840000">
        <ele>230.00000</ele>
        <time>2010-01-01T00:45:28Z</time>
      </trkpt>
      <trkpt lat="43.17487000" lon="-1.97835000">
        <ele>229.00000</ele>
        <time>2010-01-01T00:45:30Z</time>
      </trkpt>
      <trkpt lat="43.17490000" lon="-1.97838000">
        <ele>232.00000</ele>
        <time>2010-01-01T00:45:31Z</time>
      </trkpt>
      <trkpt lat="43.17487000" lon="-1.97838000">
        <ele>230.00000</ele>
        <time>2010-01-01T00:45:32Z</time>
      </trkpt>
      <trkpt lat="43.17487000" lon="-1.97840000">
        <ele>230.00000</ele>
        <time>2010-01-01T00:45:33Z</time>
      </trkpt>
      <trkpt lat="43.17487000" lon="-1.97838000">
        <ele>230.00000</ele>
        <time>2010-01-01T00:45:34Z</time>
      </trkpt>
      <trkpt lat="43.17490000" lon="-1.97833000">
        <ele>231.00000</ele>
        <time>2010-01-01T00:45:35Z</time>
      </trkpt>
      <trkpt lat="43.17483000" lon="-1.97812000">
        <ele>224.00000</ele>
        <time>2010-01-01T00:45:42Z</time>
      </trkpt>
      <trkpt lat="43.17457000" lon="-1.97769000">
        <ele>222.00000</ele>
        <time>2010-01-01T00:45:58Z</time>
      </trkpt>
      <trkpt lat="43.17421000" lon="-1.97730000">
        <ele>216.00000</ele>
        <time>2010-01-01T00:46:17Z</time>
      </trkpt>
      <trkpt lat="43.17380000" lon="-1.97700000">
        <ele>210.00000</ele>
        <time>2010-01-01T00:46:35Z</time>
      </trkpt>
      <trkpt lat="43.17357000" lon="-1.97672000">
        <ele>212.00000</ele>
        <time>2010-01-01T00:46:48Z</time>
      </trkpt>
      <trkpt lat="43.17335000" lon="-1.97625000">
        <ele>213.00000</ele>
        <time>2010-01-01T00:47:04Z</time>
      </trkpt>
      <trkpt lat="43.17333000" lon="-1.97621000">
        <ele>212.00000</ele>
        <time>2010-01-01T00:47:05Z</time>
      </trkpt>
      <trkpt lat="43.17333000" lon="-1.97595000">
        <ele>215.00000</ele>
        <time>2010-01-01T00:47:13Z</time>
      </trkpt>
      <trkpt lat="43.17346000" lon="-1.97550000">
        <ele>225.00000</ele>
        <time>2010-01-01T00:47:27Z</time>
      </trkpt>
      <trkpt lat="43.17367000" lon="-1.97505000">
        <ele>234.00000</ele>
        <time>2010-01-01T00:47:43Z</time>
      </trkpt>
      <trkpt lat="43.17369000" lon="-1.97496000">
        <ele>234.00000</ele>
        <time>2010-01-01T00:47:46Z</time>
      </trkpt>
      <trkpt lat="43.17376000" lon="-1.97488000">
        <ele>235.00000</ele>
        <time>2010-01-01T00:47:49Z</time>
      </trkpt>
      <trkpt lat="43.17387000" lon="-1.97464000">
        <ele>237.00000</ele>
        <time>2010-01-01T00:47:57Z</time>
      </trkpt>
      <trkpt lat="43.17397000" lon="-1.97434000">
        <ele>238.00000</ele>
        <time>2010-01-01T00:48:07Z</time>
      </trkpt>
      <trkpt lat="43.17408000" lon="-1.97406000">
        <ele>240.00000</ele>
        <time>2010-01-01T00:48:16Z</time>
      </trkpt>
      <trkpt lat="43.17477000" lon="-1.97222000">
        <ele>229.00000</ele>
        <time>2010-01-01T00:49:17Z</time>
      </trkpt>
      <trkpt lat="43.17490000" lon="-1.97211000">
        <ele>229.00000</ele>
        <time>2010-01-01T00:49:23Z</time>
      </trkpt>
      <trkpt lat="43.17498000" lon="-1.97172000">
        <ele>223.00000</ele>
        <time>2010-01-01T00:49:35Z</time>
      </trkpt>
      <trkpt lat="43.17500000" lon="-1.97155000">
        <ele>223.00000</ele>
        <time>2010-01-01T00:49:40Z</time>
      </trkpt>
      <trkpt lat="43.17494000" lon="-1.97117000">
        <ele>225.00000</ele>
        <time>2010-01-01T00:49:51Z</time>
      </trkpt>
      <trkpt lat="43.17492000" lon="-1.97106000">
        <ele>226.00000</ele>
        <time>2010-01-01T00:49:54Z</time>
      </trkpt>
      <trkpt lat="43.17481000" lon="-1.97087000">
        <ele>223.00000</ele>
        <time>2010-01-01T00:50:01Z</time>
      </trkpt>
      <trkpt lat="43.17470000" lon="-1.97069000">
        <ele>221.00000</ele>
        <time>2010-01-01T00:50:08Z</time>
      </trkpt>
      <trkpt lat="43.17455000" lon="-1.97048000">
        <ele>220.00000</ele>
        <time>2010-01-01T00:50:17Z</time>
      </trkpt>
      <trkpt lat="43.17445000" lon="-1.97031000">
        <ele>220.00000</ele>
        <time>2010-01-01T00:50:23Z</time>
      </trkpt>
      <trkpt lat="43.17436000" lon="-1.97018000">
        <ele>221.00000</ele>
        <time>2010-01-01T00:50:28Z</time>
      </trkpt>
      <trkpt lat="43.17410000" lon="-1.96981000">
        <ele>226.00000</ele>
        <time>2010-01-01T00:50:43Z</time>
      </trkpt>
      <trkpt lat="43.17406000" lon="-1.96973000">
        <ele>227.00000</ele>
        <time>2010-01-01T00:50:46Z</time>
      </trkpt>
      <trkpt lat="43.17393000" lon="-1.96954000">
        <ele>229.00000</ele>
        <time>2010-01-01T00:50:54Z</time>
      </trkpt>
      <trkpt lat="43.17374000" lon="-1.96932000">
        <ele>230.00000</ele>
        <time>2010-01-01T00:51:04Z</time>
      </trkpt>
      <trkpt lat="43.17344000" lon="-1.96881000">
        <ele>237.00000</ele>
        <time>2010-01-01T00:51:23Z</time>
      </trkpt>
      <trkpt lat="43.17348000" lon="-1.96726000">
        <ele>227.00000</ele>
        <time>2010-01-01T00:52:08Z</time>
      </trkpt>
      <trkpt lat="43.17354000" lon="-1.96718000">
        <ele>224.00000</ele>
        <time>2010-01-01T00:52:12Z</time>
      </trkpt>
      <trkpt lat="43.17367000" lon="-1.96711000">
        <ele>223.00000</ele>
        <time>2010-01-01T00:52:17Z</time>
      </trkpt>
      <trkpt lat="43.17384000" lon="-1.96694000">
        <ele>223.00000</ele>
        <time>2010-01-01T00:52:26Z</time>
      </trkpt>
      <trkpt lat="43.17402000" lon="-1.96675000">
        <ele>226.00000</ele>
        <time>2010-01-01T00:52:35Z</time>
      </trkpt>
      <trkpt lat="43.17412000" lon="-1.96662000">
        <ele>226.00000</ele>
        <time>2010-01-01T00:52:40Z</time>
      </trkpt>
      <trkpt lat="43.17421000" lon="-1.96647000">
        <ele>226.00000</ele>
        <time>2010-01-01T00:52:46Z</time>
      </trkpt>
      <trkpt lat="43.17427000" lon="-1.96632000">
        <ele>226.00000</ele>
        <time>2010-01-01T00:52:51Z</time>
      </trkpt>
      <trkpt lat="43.17432000" lon="-1.96621000">
        <ele>225.00000</ele>
        <time>2010-01-01T00:52:55Z</time>
      </trkpt>
      <trkpt lat="43.17438000" lon="-1.96610000">
        <ele>224.00000</ele>
        <time>2010-01-01T00:52:59Z</time>
      </trkpt>
      <trkpt lat="43.17460000" lon="-1.96584000">
        <ele>224.00000</ele>
        <time>2010-01-01T00:53:10Z</time>
      </trkpt>
      <trkpt lat="43.17468000" lon="-1.96569000">
        <ele>223.00000</ele>
        <time>2010-01-01T00:53:16Z</time>
      </trkpt>
      <trkpt lat="43.17479000" lon="-1.96535000">
        <ele>220.00000</ele>
        <time>2010-01-01T00:53:27Z</time>
      </trkpt>
      <trkpt lat="43.17477000" lon="-1.96509000">
        <ele>218.00000</ele>
        <time>2010-01-01T00:53:34Z</time>
      </trkpt>
      <trkpt lat="43.17470000" lon="-1.96494000">
        <ele>218.00000</ele>
        <time>2010-01-01T00:53:39Z</time>
      </trkpt>
      <trkpt lat="43.17455000" lon="-1.96469000">
        <ele>218.00000</ele>
        <time>2010-01-01T00:53:49Z</time>
      </trkpt>
      <trkpt lat="43.17427000" lon="-1.96451000">
        <ele>218.00000</ele>
        <time>2010-01-01T00:54:01Z</time>
      </trkpt>
      <trkpt lat="43.17404000" lon="-1.96436000">
        <ele>223.00000</ele>
        <time>2010-01-01T00:54:11Z</time>
      </trkpt>
      <trkpt lat="43.17372000" lon="-1.96421000">
        <ele>231.00000</ele>
        <time>2010-01-01T00:54:25Z</time>
      </trkpt>
      <trkpt lat="43.17314000" lon="-1.96391000">
        <ele>235.00000</ele>
        <time>2010-01-01T00:54:50Z</time>
      </trkpt>
      <trkpt lat="43.17269000" lon="-1.96366000">
        <ele>236.00000</ele>
        <time>2010-01-01T00:55:09Z</time>
      </trkpt>
      <trkpt lat="43.17262000" lon="-1.96338000">
        <ele>242.00000</ele>
        <time>2010-01-01T00:55:18Z</time>
      </trkpt>
      <trkpt lat="43.17249000" lon="-1.96278000">
        <ele>249.00000</ele>
        <time>2010-01-01T00:55:36Z</time>
      </trkpt>
      <trkpt lat="43.17230000" lon="-1.96207000">
        <ele>253.00000</ele>
        <time>2010-01-01T00:55:58Z</time>
      </trkpt>
      <trkpt lat="43.17191000" lon="-1.96147000">
        <ele>245.00000</ele>
        <time>2010-01-01T00:56:22Z</time>
      </trkpt>
      <trkpt lat="43.17172000" lon="-1.96123000">
        <ele>240.00000</ele>
        <time>2010-01-01T00:56:32Z</time>
      </trkpt>
      <trkpt lat="43.17118000" lon="-1.96057000">
        <ele>239.00000</ele>
        <time>2010-01-01T00:57:01Z</time>
      </trkpt>
      <trkpt lat="43.17101000" lon="-1.96046000">
        <ele>237.00000</ele>
        <time>2010-01-01T00:57:09Z</time>
      </trkpt>
      <trkpt lat="43.17050000" lon="-1.96035000">
        <ele>237.00000</ele>
        <time>2010-01-01T00:57:29Z</time>
      </trkpt>
      <trkpt lat="43.16979000" lon="-1.96044000">
        <ele>240.00000</ele>
        <time>2010-01-01T00:57:58Z</time>
      </trkpt>
      <trkpt lat="43.16915000" lon="-1.96031000">
        <ele>231.00000</ele>
        <time>2010-01-01T00:58:24Z</time>
      </trkpt>
      <trkpt lat="43.16906000" lon="-1.96031000">
        <ele>231.00000</ele>
        <time>2010-01-01T00:58:27Z</time>
      </trkpt>
      <trkpt lat="43.16861000" lon="-1.96016000">
        <ele>233.00000</ele>
        <time>2010-01-01T00:58:46Z</time>
      </trkpt>
      <trkpt lat="43.16848000" lon="-1.96012000">
        <ele>234.00000</ele>
        <time>2010-01-01T00:58:51Z</time>
      </trkpt>
      <trkpt lat="43.16822000" lon="-1.96003000">
        <ele>236.00000</ele>
        <time>2010-01-01T00:59:02Z</time>
      </trkpt>
      <trkpt lat="43.16818000" lon="-1.96003000">
        <ele>237.00000</ele>
        <time>2010-01-01T00:59:03Z</time>
      </trkpt>
      <trkpt lat="43.16779000" lon="-1.95999000">
        <ele>239.00000</ele>
        <time>2010-01-01T00:59:19Z</time>
      </trkpt>
      <trkpt lat="43.16760000" lon="-1.96007000">
        <ele>246.00000</ele>
        <time>2010-01-01T00:59:27Z</time>
      </trkpt>
      <trkpt lat="43.16642000" lon="-1.96115000">
        <ele>251.00000</ele>
        <time>2010-01-01T01:00:24Z</time>
      </trkpt>
      <trkpt lat="43.16651000" lon="-1.96166000">
        <ele>254.00000</ele>
        <time>2010-01-01T01:00:39Z</time>
      </trkpt>
      <trkpt lat="43.16648000" lon="-1.96194000">
        <ele>252.00000</ele>
        <time>2010-01-01T01:00:47Z</time>
      </trkpt>
      <trkpt lat="43.16648000" lon="-1.96241000">
        <ele>252.00000</ele>
        <time>2010-01-01T01:01:01Z</time>
      </trkpt>
      <trkpt lat="43.16648000" lon="-1.96248000">
        <ele>252.00000</ele>
        <time>2010-01-01T01:01:03Z</time>
      </trkpt>
      <trkpt lat="43.16648000" lon="-1.96252000">
        <ele>253.00000</ele>
        <time>2010-01-01T01:01:04Z</time>
      </trkpt>
      <trkpt lat="43.16640000" lon="-1.96275000">
        <ele>251.00000</ele>
        <time>2010-01-01T01:01:12Z</time>
      </trkpt>
      <trkpt lat="43.16636000" lon="-1.96286000">
        <ele>251.00000</ele>
        <time>2010-01-01T01:01:15Z</time>
      </trkpt>
      <trkpt lat="43.16623000" lon="-1.96310000">
        <ele>251.00000</ele>
        <time>2010-01-01T01:01:24Z</time>
      </trkpt>
      <trkpt lat="43.16595000" lon="-1.96325000">
        <ele>249.00000</ele>
        <time>2010-01-01T01:01:36Z</time>
      </trkpt>
      <trkpt lat="43.16586000" lon="-1.96331000">
        <ele>247.00000</ele>
        <time>2010-01-01T01:01:40Z</time>
      </trkpt>
      <trkpt lat="43.16573000" lon="-1.96340000">
        <ele>248.00000</ele>
        <time>2010-01-01T01:01:46Z</time>
      </trkpt>
      <trkpt lat="43.16565000" lon="-1.96342000">
        <ele>248.00000</ele>
        <time>2010-01-01T01:01:49Z</time>
      </trkpt>
      <trkpt lat="43.16545000" lon="-1.96348000">
        <ele>249.00000</ele>
        <time>2010-01-01T01:01:57Z</time>
      </trkpt>
      <trkpt lat="43.16524000" lon="-1.96355000">
        <ele>248.00000</ele>
        <time>2010-01-01T01:02:06Z</time>
      </trkpt>
      <trkpt lat="43.16500000" lon="-1.96366000">
        <ele>244.00000</ele>
        <time>2010-01-01T01:02:16Z</time>
      </trkpt>
      <trkpt lat="43.16475000" lon="-1.96393000">
        <ele>243.00000</ele>
        <time>2010-01-01T01:02:29Z</time>
      </trkpt>
      <trkpt lat="43.16470000" lon="-1.96406000">
        <ele>243.00000</ele>
        <time>2010-01-01T01:02:33Z</time>
      </trkpt>
      <trkpt lat="43.16466000" lon="-1.96436000">
        <ele>246.00000</ele>
        <time>2010-01-01T01:02:42Z</time>
      </trkpt>
      <trkpt lat="43.16466000" lon="-1.96460000">
        <ele>248.00000</ele>
        <time>2010-01-01T01:02:49Z</time>
      </trkpt>
      <trkpt lat="43.16477000" lon="-1.96503000">
        <ele>249.00000</ele>
        <time>2010-01-01T01:03:03Z</time>
      </trkpt>
      <trkpt lat="43.16481000" lon="-1.96576000">
        <ele>248.00000</ele>
        <time>2010-01-01T01:03:24Z</time>
      </trkpt>
      <trkpt lat="43.16473000" lon="-1.96621000">
        <ele>249.00000</ele>
        <time>2010-01-01T01:03:37Z</time>
      </trkpt>
      <trkpt lat="43.16464000" lon="-1.96662000">
        <ele>253.00000</ele>
        <time>2010-01-01T01:03:50Z</time>
      </trkpt>
      <trkpt lat="43.16464000" lon="-1.96672000">
        <ele>252.00000</ele>
        <time>2010-01-01T01:03:53Z</time>
      </trkpt>
      <trkpt lat="43.16455000" lon="-1.96724000">
        <ele>254.00000</ele>
        <time>2010-01-01T01:04:08Z</time>
      </trkpt>
      <trkpt lat="43.16442000" lon="-1.96771000">
        <ele>252.00000</ele>
        <time>2010-01-01T01:04:23Z</time>
      </trkpt>
      <trkpt lat="43.16427000" lon="-1.96808000">
        <ele>260.00000</ele>
        <time>2010-01-01T01:04:35Z</time>
      </trkpt>
      <trkpt lat="43.16408000" lon="-1.96868000">
        <ele>259.00000</ele>
        <time>2010-01-01T01:04:55Z</time>
      </trkpt>
      <trkpt lat="43.16404000" lon="-1.96881000">
        <ele>257.00000</ele>
        <time>2010-01-01T01:04:59Z</time>
      </trkpt>
      <trkpt lat="43.16397000" lon="-1.96898000">
        <ele>257.00000</ele>
        <time>2010-01-01T01:05:04Z</time>
      </trkpt>
      <trkpt lat="43.16391000" lon="-1.96913000">
        <ele>256.00000</ele>
        <time>2010-01-01T01:05:09Z</time>
      </trkpt>
      <trkpt lat="43.16378000" lon="-1.96930000">
        <ele>257.00000</ele>
        <time>2010-01-01T01:05:17Z</time>
      </trkpt>
      <trkpt lat="43.16337000" lon="-1.96962000">
        <ele>268.00000</ele>
        <time>2010-01-01T01:05:35Z</time>
      </trkpt>
      <trkpt lat="43.16305000" lon="-1.96954000">
        <ele>268.00000</ele>
        <time>2010-01-01T01:05:48Z</time>
      </trkpt>
      <trkpt lat="43.16282000" lon="-1.96915000">
        <ele>263.00000</ele>
        <time>2010-01-01T01:06:03Z</time>
      </trkpt>
      <trkpt lat="43.16271000" lon="-1.96868000">
        <ele>264.00000</ele>
        <time>2010-01-01T01:06:18Z</time>
      </trkpt>
      <trkpt lat="43.16271000" lon="-1.96846000">
        <ele>265.00000</ele>
        <time>2010-01-01T01:06:24Z</time>
      </trkpt>
      <trkpt lat="43.16269000" lon="-1.96833000">
        <ele>266.00000</ele>
        <time>2010-01-01T01:06:28Z</time>
      </trkpt>
      <trkpt lat="43.16254000" lon="-1.96765000">
        <ele>266.00000</ele>
        <time>2010-01-01T01:06:49Z</time>
      </trkpt>
      <trkpt lat="43.16254000" lon="-1.96758000">
        <ele>265.00000</ele>
        <time>2010-01-01T01:06:51Z</time>
      </trkpt>
      <trkpt lat="43.16224000" lon="-1.96698000">
        <ele>261.00000</ele>
        <time>2010-01-01T01:07:12Z</time>
      </trkpt>
      <trkpt lat="43.16187000" lon="-1.96664000">
        <ele>263.00000</ele>
        <time>2010-01-01T01:07:30Z</time>
      </trkpt>
      <trkpt lat="43.16153000" lon="-1.96617000">
        <ele>262.00000</ele>
        <time>2010-01-01T01:07:49Z</time>
      </trkpt>
      <trkpt lat="43.16142000" lon="-1.96602000">
        <ele>261.00000</ele>
        <time>2010-01-01T01:07:55Z</time>
      </trkpt>
      <trkpt lat="43.16116000" lon="-1.96518000">
        <ele>274.00000</ele>
        <time>2010-01-01T01:08:22Z</time>
      </trkpt>
      <trkpt lat="43.16114000" lon="-1.96512000">
        <ele>275.00000</ele>
        <time>2010-01-01T01:08:24Z</time>
      </trkpt>
      <trkpt lat="43.16106000" lon="-1.96492000">
        <ele>278.00000</ele>
        <time>2010-01-01T01:08:30Z</time>
      </trkpt>
      <trkpt lat="43.16080000" lon="-1.96462000">
        <ele>282.00000</ele>
        <time>2010-01-01T01:08:44Z</time>
      </trkpt>
      <trkpt lat="43.16076000" lon="-1.96460000">
        <ele>281.00000</ele>
        <time>2010-01-01T01:08:46Z</time>
      </trkpt>
      <trkpt lat="43.16054000" lon="-1.96458000">
        <ele>272.00000</ele>
        <time>2010-01-01T01:08:55Z</time>
      </trkpt>
      <trkpt lat="43.16050000" lon="-1.96458000">
        <ele>272.00000</ele>
        <time>2010-01-01T01:08:56Z</time>
      </trkpt>
      <trkpt lat="43.16005000" lon="-1.96471000">
        <ele>266.00000</ele>
        <time>2010-01-01T01:09:15Z</time>
      </trkpt>
      <trkpt lat="43.15988000" lon="-1.96477000">
        <ele>269.00000</ele>
        <time>2010-01-01T01:09:22Z</time>
      </trkpt>
      <trkpt lat="43.15981000" lon="-1.96479000">
        <ele>271.00000</ele>
        <time>2010-01-01T01:09:24Z</time>
      </trkpt>
      <trkpt lat="43.15962000" lon="-1.96496000">
        <ele>271.00000</ele>
        <time>2010-01-01T01:09:34Z</time>
      </trkpt>
      <trkpt lat="43.15921000" lon="-1.96533000">
        <ele>267.00000</ele>
        <time>2010-01-01T01:09:53Z</time>
      </trkpt>
      <trkpt lat="43.15908000" lon="-1.96539000">
        <ele>267.00000</ele>
        <time>2010-01-01T01:09:59Z</time>
      </trkpt>
      <trkpt lat="43.15891000" lon="-1.96544000">
        <ele>265.00000</ele>
        <time>2010-01-01T01:10:06Z</time>
      </trkpt>
      <trkpt lat="43.15859000" lon="-1.96539000">
        <ele>264.00000</ele>
        <time>2010-01-01T01:10:19Z</time>
      </trkpt>
      <trkpt lat="43.15814000" lon="-1.96520000">
        <ele>264.00000</ele>
        <time>2010-01-01T01:10:37Z</time>
      </trkpt>
      <trkpt lat="43.15767000" lon="-1.96507000">
        <ele>274.00000</ele>
        <time>2010-01-01T01:10:57Z</time>
      </trkpt>
      <trkpt lat="43.15762000" lon="-1.96507000">
        <ele>276.00000</ele>
        <time>2010-01-01T01:10:59Z</time>
      </trkpt>
      <trkpt lat="43.15756000" lon="-1.96496000">
        <ele>284.00000</ele>
        <time>2010-01-01T01:11:03Z</time>
      </trkpt>
      <trkpt lat="43.15715000" lon="-1.96505000">
        <ele>283.00000</ele>
        <time>2010-01-01T01:11:19Z</time>
      </trkpt>
      <trkpt lat="43.15687000" lon="-1.96512000">
        <ele>274.00000</ele>
        <time>2010-01-01T01:11:31Z</time>
      </trkpt>
      <trkpt lat="43.15666000" lon="-1.96509000">
        <ele>268.00000</ele>
        <time>2010-01-01T01:11:39Z</time>
      </trkpt>
      <trkpt lat="43.15610000" lon="-1.96464000">
        <ele>271.00000</ele>
        <time>2010-01-01T01:12:05Z</time>
      </trkpt>
      <trkpt lat="43.15586000" lon="-1.96426000">
        <ele>272.00000</ele>
        <time>2010-01-01T01:12:20Z</time>
      </trkpt>
      <trkpt lat="43.15582000" lon="-1.96413000">
        <ele>272.00000</ele>
        <time>2010-01-01T01:12:24Z</time>
      </trkpt>
      <trkpt lat="43.15571000" lon="-1.96393000">
        <ele>271.00000</ele>
        <time>2010-01-01T01:12:31Z</time>
      </trkpt>
      <trkpt lat="43.15550000" lon="-1.96333000">
        <ele>272.00000</ele>
        <time>2010-01-01T01:12:51Z</time>
      </trkpt>
      <trkpt lat="43.15531000" lon="-1.96293000">
        <ele>280.00000</ele>
        <time>2010-01-01T01:13:05Z</time>
      </trkpt>
      <trkpt lat="43.15507000" lon="-1.96280000">
        <ele>278.00000</ele>
        <time>2010-01-01T01:13:15Z</time>
      </trkpt>
      <trkpt lat="43.15473000" lon="-1.96273000">
        <ele>275.00000</ele>
        <time>2010-01-01T01:13:29Z</time>
      </trkpt>
      <trkpt lat="43.15464000" lon="-1.96273000">
        <ele>276.00000</ele>
        <time>2010-01-01T01:13:32Z</time>
      </trkpt>
      <trkpt lat="43.15447000" lon="-1.96280000">
        <ele>276.00000</ele>
        <time>2010-01-01T01:13:39Z</time>
      </trkpt>
      <trkpt lat="43.15434000" lon="-1.96288000">
        <ele>281.00000</ele>
        <time>2010-01-01T01:13:45Z</time>
      </trkpt>
      <trkpt lat="43.15398000" lon="-1.96344000">
        <ele>287.00000</ele>
        <time>2010-01-01T01:14:07Z</time>
      </trkpt>
      <trkpt lat="43.15395000" lon="-1.96353000">
        <ele>285.00000</ele>
        <time>2010-01-01T01:14:10Z</time>
      </trkpt>
      <trkpt lat="43.15389000" lon="-1.96376000">
        <ele>283.00000</ele>
        <time>2010-01-01T01:14:17Z</time>
      </trkpt>
      <trkpt lat="43.15385000" lon="-1.96383000">
        <ele>285.00000</ele>
        <time>2010-01-01T01:14:19Z</time>
      </trkpt>
      <trkpt lat="43.15318000" lon="-1.96424000">
        <ele>286.00000</ele>
        <time>2010-01-01T01:14:49Z</time>
      </trkpt>
      <trkpt lat="43.15297000" lon="-1.96430000">
        <ele>282.00000</ele>
        <time>2010-01-01T01:14:57Z</time>
      </trkpt>
      <trkpt lat="43.15239000" lon="-1.96419000">
        <ele>284.00000</ele>
        <time>2010-01-01T01:15:21Z</time>
      </trkpt>
      <trkpt lat="43.15219000" lon="-1.96421000">
        <ele>283.00000</ele>
        <time>2010-01-01T01:15:29Z</time>
      </trkpt>
      <trkpt lat="43.15202000" lon="-1.96426000">
        <ele>283.00000</ele>
        <time>2010-01-01T01:15:36Z</time>
      </trkpt>
      <trkpt lat="43.15155000" lon="-1.96424000">
        <ele>287.00000</ele>
        <time>2010-01-01T01:15:55Z</time>
      </trkpt>
      <trkpt lat="43.15119000" lon="-1.96424000">
        <ele>287.00000</ele>
        <time>2010-01-01T01:16:09Z</time>
      </trkpt>
      <trkpt lat="43.15097000" lon="-1.96426000">
        <ele>286.00000</ele>
        <time>2010-01-01T01:16:18Z</time>
      </trkpt>
      <trkpt lat="43.15078000" lon="-1.96432000">
        <ele>283.00000</ele>
        <time>2010-01-01T01:16:26Z</time>
      </trkpt>
      <trkpt lat="43.15073000" lon="-1.96432000">
        <ele>284.00000</ele>
        <time>2010-01-01T01:16:28Z</time>
      </trkpt>
      <trkpt lat="43.15058000" lon="-1.96439000">
        <ele>282.00000</ele>
        <time>2010-01-01T01:16:34Z</time>
      </trkpt>
      <trkpt lat="43.15046000" lon="-1.96443000">
        <ele>281.00000</ele>
        <time>2010-01-01T01:16:39Z</time>
      </trkpt>
      <trkpt lat="43.15028000" lon="-1.96447000">
        <ele>281.00000</ele>
        <time>2010-01-01T01:16:46Z</time>
      </trkpt>
      <trkpt lat="43.15005000" lon="-1.96443000">
        <ele>283.00000</ele>
        <time>2010-01-01T01:16:56Z</time>
      </trkpt>
      <trkpt lat="43.14986000" lon="-1.96430000">
        <ele>285.00000</ele>
        <time>2010-01-01T01:17:04Z</time>
      </trkpt>
      <trkpt lat="43.14970000" lon="-1.96417000">
        <ele>285.00000</ele>
        <time>2010-01-01T01:17:12Z</time>
      </trkpt>
      <trkpt lat="43.14962000" lon="-1.96404000">
        <ele>285.00000</ele>
        <time>2010-01-01T01:17:17Z</time>
      </trkpt>
      <trkpt lat="43.14947000" lon="-1.96376000">
        <ele>285.00000</ele>
        <time>2010-01-01T01:17:27Z</time>
      </trkpt>
      <trkpt lat="43.14928000" lon="-1.96338000">
        <ele>285.00000</ele>
        <time>2010-01-01T01:17:40Z</time>
      </trkpt>
      <trkpt lat="43.14923000" lon="-1.96329000">
        <ele>285.00000</ele>
        <time>2010-01-01T01:17:43Z</time>
      </trkpt>
      <trkpt lat="43.14908000" lon="-1.96306000">
        <ele>285.00000</ele>
        <time>2010-01-01T01:17:52Z</time>
      </trkpt>
      <trkpt lat="43.14895000" lon="-1.96280000">
        <ele>284.00000</ele>
        <time>2010-01-01T01:18:02Z</time>
      </trkpt>
      <trkpt lat="43.14874000" lon="-1.96245000">
        <ele>286.00000</ele>
        <time>2010-01-01T01:18:15Z</time>
      </trkpt>
      <trkpt lat="43.14880000" lon="-1.96149000">
        <ele>301.00000</ele>
        <time>2010-01-01T01:18:43Z</time>
      </trkpt>
      <trkpt lat="43.14880000" lon="-1.96112000">
        <ele>293.00000</ele>
        <time>2010-01-01T01:18:54Z</time>
      </trkpt>
      <trkpt lat="43.14880000" lon="-1.96080000">
        <ele>289.00000</ele>
        <time>2010-01-01T01:19:03Z</time>
      </trkpt>
      <trkpt lat="43.14889000" lon="-1.96054000">
        <ele>290.00000</ele>
        <time>2010-01-01T01:19:12Z</time>
      </trkpt>
      <trkpt lat="43.14913000" lon="-1.96003000">
        <ele>290.00000</ele>
        <time>2010-01-01T01:19:29Z</time>
      </trkpt>
      <trkpt lat="43.14936000" lon="-1.95947000">
        <ele>294.00000</ele>
        <time>2010-01-01T01:19:48Z</time>
      </trkpt>
      <trkpt lat="43.14955000" lon="-1.95885000">
        <ele>293.00000</ele>
        <time>2010-01-01T01:20:08Z</time>
      </trkpt>
      <trkpt lat="43.14970000" lon="-1.95818000">
        <ele>292.00000</ele>
        <time>2010-01-01T01:20:28Z</time>
      </trkpt>
      <trkpt lat="43.14986000" lon="-1.95750000">
        <ele>279.00000</ele>
        <time>2010-01-01T01:20:49Z</time>
      </trkpt>
      <trkpt lat="43.14988000" lon="-1.95707000">
        <ele>285.00000</ele>
        <time>2010-01-01T01:21:02Z</time>
      </trkpt>
      <trkpt lat="43.14986000" lon="-1.95677000">
        <ele>294.00000</ele>
        <time>2010-01-01T01:21:10Z</time>
      </trkpt>
      <trkpt lat="43.14945000" lon="-1.95591000">
        <ele>292.00000</ele>
        <time>2010-01-01T01:21:40Z</time>
      </trkpt>
      <trkpt lat="43.14917000" lon="-1.95580000">
        <ele>292.00000</ele>
        <time>2010-01-01T01:21:52Z</time>
      </trkpt>
      <trkpt lat="43.14887000" lon="-1.95570000">
        <ele>303.00000</ele>
        <time>2010-01-01T01:22:04Z</time>
      </trkpt>
      <trkpt lat="43.14837000" lon="-1.95447000">
        <ele>323.00000</ele>
        <time>2010-01-01T01:22:46Z</time>
      </trkpt>
      <trkpt lat="43.14829000" lon="-1.95411000">
        <ele>317.00000</ele>
        <time>2010-01-01T01:22:57Z</time>
      </trkpt>
      <trkpt lat="43.14827000" lon="-1.95379000">
        <ele>314.00000</ele>
        <time>2010-01-01T01:23:06Z</time>
      </trkpt>
      <trkpt lat="43.14827000" lon="-1.95353000">
        <ele>312.00000</ele>
        <time>2010-01-01T01:23:14Z</time>
      </trkpt>
      <trkpt lat="43.14822000" lon="-1.95336000">
        <ele>309.00000</ele>
        <time>2010-01-01T01:23:19Z</time>
      </trkpt>
      <trkpt lat="43.14786000" lon="-1.95248000">
        <ele>302.00000</ele>
        <time>2010-01-01T01:23:48Z</time>
      </trkpt>
      <trkpt lat="43.14732000" lon="-1.95218000">
        <ele>300.00000</ele>
        <time>2010-01-01T01:24:12Z</time>
      </trkpt>
      <trkpt lat="43.14679000" lon="-1.95228000">
        <ele>307.00000</ele>
        <time>2010-01-01T01:24:33Z</time>
      </trkpt>
      <trkpt lat="43.14644000" lon="-1.95246000">
        <ele>304.00000</ele>
        <time>2010-01-01T01:24:48Z</time>
      </trkpt>
      <trkpt lat="43.14612000" lon="-1.95256000">
        <ele>311.00000</ele>
        <time>2010-01-01T01:25:01Z</time>
      </trkpt>
      <trkpt lat="43.14574000" lon="-1.95273000">
        <ele>312.00000</ele>
        <time>2010-01-01T01:25:17Z</time>
      </trkpt>
      <trkpt lat="43.14556000" lon="-1.95280000">
        <ele>311.00000</ele>
        <time>2010-01-01T01:25:25Z</time>
      </trkpt>
      <trkpt lat="43.14554000" lon="-1.95282000">
        <ele>310.00000</ele>
        <time>2010-01-01T01:25:26Z</time>
      </trkpt>
      <trkpt lat="43.14526000" lon="-1.95291000">
        <ele>307.00000</ele>
        <time>2010-01-01T01:25:37Z</time>
      </trkpt>
      <trkpt lat="43.14518000" lon="-1.95295000">
        <ele>308.00000</ele>
        <time>2010-01-01T01:25:41Z</time>
      </trkpt>
      <trkpt lat="43.14505000" lon="-1.95299000">
        <ele>308.00000</ele>
        <time>2010-01-01T01:25:46Z</time>
      </trkpt>
      <trkpt lat="43.14466000" lon="-1.95314000">
        <ele>311.00000</ele>
        <time>2010-01-01T01:26:02Z</time>
      </trkpt>
      <trkpt lat="43.14419000" lon="-1.95336000">
        <ele>305.00000</ele>
        <time>2010-01-01T01:26:22Z</time>
      </trkpt>
      <trkpt lat="43.14368000" lon="-1.95333000">
        <ele>304.00000</ele>
        <time>2010-01-01T01:26:42Z</time>
      </trkpt>
      <trkpt lat="43.14325000" lon="-1.95293000">
        <ele>307.00000</ele>
        <time>2010-01-01T01:27:03Z</time>
      </trkpt>
      <trkpt lat="43.14310000" lon="-1.95271000">
        <ele>308.00000</ele>
        <time>2010-01-01T01:27:12Z</time>
      </trkpt>
      <trkpt lat="43.14260000" lon="-1.95200000">
        <ele>315.00000</ele>
        <time>2010-01-01T01:27:41Z</time>
      </trkpt>
      <trkpt lat="43.14232000" lon="-1.95170000">
        <ele>324.00000</ele>
        <time>2010-01-01T01:27:55Z</time>
      </trkpt>
      <trkpt lat="43.14213000" lon="-1.95149000">
        <ele>338.00000</ele>
        <time>2010-01-01T01:28:05Z</time>
      </trkpt>
      <trkpt lat="43.14046000" lon="-1.95052000">
        <ele>326.00000</ele>
        <time>2010-01-01T01:29:17Z</time>
      </trkpt>
      <trkpt lat="43.14016000" lon="-1.95046000">
        <ele>315.00000</ele>
        <time>2010-01-01T01:29:30Z</time>
      </trkpt>
      <trkpt lat="43.13977000" lon="-1.95027000">
        <ele>313.00000</ele>
        <time>2010-01-01T01:29:46Z</time>
      </trkpt>
      <trkpt lat="43.13878000" lon="-1.94992000">
        <ele>319.00000</ele>
        <time>2010-01-01T01:30:27Z</time>
      </trkpt>
      <trkpt lat="43.13865000" lon="-1.94988000">
        <ele>317.00000</ele>
        <time>2010-01-01T01:30:32Z</time>
      </trkpt>
      <trkpt lat="43.13848000" lon="-1.94977000">
        <ele>317.00000</ele>
        <time>2010-01-01T01:30:40Z</time>
      </trkpt>
      <trkpt lat="43.13818000" lon="-1.94956000">
        <ele>318.00000</ele>
        <time>2010-01-01T01:30:53Z</time>
      </trkpt>
      <trkpt lat="43.13784000" lon="-1.94937000">
        <ele>321.00000</ele>
        <time>2010-01-01T01:31:08Z</time>
      </trkpt>
      <trkpt lat="43.13739000" lon="-1.94928000">
        <ele>322.00000</ele>
        <time>2010-01-01T01:31:26Z</time>
      </trkpt>
      <trkpt lat="43.13726000" lon="-1.94928000">
        <ele>321.00000</ele>
        <time>2010-01-01T01:31:32Z</time>
      </trkpt>
      <trkpt lat="43.13715000" lon="-1.94928000">
        <ele>320.00000</ele>
        <time>2010-01-01T01:31:36Z</time>
      </trkpt>
      <trkpt lat="43.13698000" lon="-1.94926000">
        <ele>319.00000</ele>
        <time>2010-01-01T01:31:43Z</time>
      </trkpt>
      <trkpt lat="43.13655000" lon="-1.94921000">
        <ele>319.00000</ele>
        <time>2010-01-01T01:32:00Z</time>
      </trkpt>
      <trkpt lat="43.13640000" lon="-1.94919000">
        <ele>320.00000</ele>
        <time>2010-01-01T01:32:06Z</time>
      </trkpt>
      <trkpt lat="43.13636000" lon="-1.94919000">
        <ele>321.00000</ele>
        <time>2010-01-01T01:32:08Z</time>
      </trkpt>
      <trkpt lat="43.13617000" lon="-1.94911000">
        <ele>325.00000</ele>
        <time>2010-01-01T01:32:16Z</time>
      </trkpt>
      <trkpt lat="43.13593000" lon="-1.94876000">
        <ele>333.00000</ele>
        <time>2010-01-01T01:32:30Z</time>
      </trkpt>
      <trkpt lat="43.13597000" lon="-1.94771000">
        <ele>337.00000</ele>
        <time>2010-01-01T01:33:00Z</time>
      </trkpt>
      <trkpt lat="43.13601000" lon="-1.94752000">
        <ele>334.00000</ele>
        <time>2010-01-01T01:33:06Z</time>
      </trkpt>
      <trkpt lat="43.13601000" lon="-1.94743000">
        <ele>332.00000</ele>
        <time>2010-01-01T01:33:09Z</time>
      </trkpt>
      <trkpt lat="43.13604000" lon="-1.94737000">
        <ele>332.00000</ele>
        <time>2010-01-01T01:33:11Z</time>
      </trkpt>
      <trkpt lat="43.13636000" lon="-1.94703000">
        <ele>342.00000</ele>
        <time>2010-01-01T01:33:27Z</time>
      </trkpt>
      <trkpt lat="43.13649000" lon="-1.94694000">
        <ele>343.00000</ele>
        <time>2010-01-01T01:33:33Z</time>
      </trkpt>
      <trkpt lat="43.13664000" lon="-1.94688000">
        <ele>346.00000</ele>
        <time>2010-01-01T01:33:39Z</time>
      </trkpt>
      <trkpt lat="43.13687000" lon="-1.94647000">
        <ele>344.00000</ele>
        <time>2010-01-01T01:33:54Z</time>
      </trkpt>
      <trkpt lat="43.13687000" lon="-1.94640000">
        <ele>342.00000</ele>
        <time>2010-01-01T01:33:56Z</time>
      </trkpt>
      <trkpt lat="43.13689000" lon="-1.94615000">
        <ele>340.00000</ele>
        <time>2010-01-01T01:34:04Z</time>
      </trkpt>
      <trkpt lat="43.13679000" lon="-1.94548000">
        <ele>340.00000</ele>
        <time>2010-01-01T01:34:24Z</time>
      </trkpt>
      <trkpt lat="43.13666000" lon="-1.94533000">
        <ele>338.00000</ele>
        <time>2010-01-01T01:34:30Z</time>
      </trkpt>
      <trkpt lat="43.13653000" lon="-1.94522000">
        <ele>336.00000</ele>
        <time>2010-01-01T01:34:37Z</time>
      </trkpt>
      <trkpt lat="43.13638000" lon="-1.94507000">
        <ele>334.00000</ele>
        <time>2010-01-01T01:34:44Z</time>
      </trkpt>
      <trkpt lat="43.13610000" lon="-1.94484000">
        <ele>332.00000</ele>
        <time>2010-01-01T01:34:57Z</time>
      </trkpt>
      <trkpt lat="43.13565000" lon="-1.94454000">
        <ele>332.00000</ele>
        <time>2010-01-01T01:35:17Z</time>
      </trkpt>
      <trkpt lat="43.13520000" lon="-1.94426000">
        <ele>331.00000</ele>
        <time>2010-01-01T01:35:37Z</time>
      </trkpt>
      <trkpt lat="43.13507000" lon="-1.94422000">
        <ele>331.00000</ele>
        <time>2010-01-01T01:35:42Z</time>
      </trkpt>
      <trkpt lat="43.13481000" lon="-1.94411000">
        <ele>331.00000</ele>
        <time>2010-01-01T01:35:53Z</time>
      </trkpt>
      <trkpt lat="43.13468000" lon="-1.94400000">
        <ele>332.00000</ele>
        <time>2010-01-01T01:35:59Z</time>
      </trkpt>
      <trkpt lat="43.13411000" lon="-1.94338000">
        <ele>337.00000</ele>
        <time>2010-01-01T01:36:28Z</time>
      </trkpt>
      <trkpt lat="43.13396000" lon="-1.94258000">
        <ele>346.00000</ele>
        <time>2010-01-01T01:36:53Z</time>
      </trkpt>
      <trkpt lat="43.13376000" lon="-1.94216000">
        <ele>353.00000</ele>
        <time>2010-01-01T01:37:07Z</time>
      </trkpt>
      <trkpt lat="43.13376000" lon="-1.94209000">
        <ele>351.00000</ele>
        <time>2010-01-01T01:37:09Z</time>
      </trkpt>
      <trkpt lat="43.13380000" lon="-1.94183000">
        <ele>346.00000</ele>
        <time>2010-01-01T01:37:17Z</time>
      </trkpt>
      <trkpt lat="43.13387000" lon="-1.94160000">
        <ele>342.00000</ele>
        <time>2010-01-01T01:37:24Z</time>
      </trkpt>
      <trkpt lat="43.13398000" lon="-1.94128000">
        <ele>342.00000</ele>
        <time>2010-01-01T01:37:35Z</time>
      </trkpt>
      <trkpt lat="43.13423000" lon="-1.94080000">
        <ele>339.00000</ele>
        <time>2010-01-01T01:37:52Z</time>
      </trkpt>
      <trkpt lat="43.13451000" lon="-1.94001000">
        <ele>350.00000</ele>
        <time>2010-01-01T01:38:17Z</time>
      </trkpt>
      <trkpt lat="43.13451000" lon="-1.93954000">
        <ele>356.00000</ele>
        <time>2010-01-01T01:38:31Z</time>
      </trkpt>
      <trkpt lat="43.13449000" lon="-1.93924000">
        <ele>354.00000</ele>
        <time>2010-01-01T01:38:40Z</time>
      </trkpt>
      <trkpt lat="43.13449000" lon="-1.93892000">
        <ele>352.00000</ele>
        <time>2010-01-01T01:38:49Z</time>
      </trkpt>
      <trkpt lat="43.13443000" lon="-1.93844000">
        <ele>360.00000</ele>
        <time>2010-01-01T01:39:04Z</time>
      </trkpt>
      <trkpt lat="43.13423000" lon="-1.93827000">
        <ele>364.00000</ele>
        <time>2010-01-01T01:39:13Z</time>
      </trkpt>
      <trkpt lat="43.13389000" lon="-1.93634000">
        <ele>360.00000</ele>
        <time>2010-01-01T01:40:11Z</time>
      </trkpt>
      <trkpt lat="43.13365000" lon="-1.93630000">
        <ele>359.00000</ele>
        <time>2010-01-01T01:40:21Z</time>
      </trkpt>
      <trkpt lat="43.13359000" lon="-1.93628000">
        <ele>359.00000</ele>
        <time>2010-01-01T01:40:23Z</time>
      </trkpt>
      <trkpt lat="43.13353000" lon="-1.93625000">
        <ele>361.00000</ele>
        <time>2010-01-01T01:40:26Z</time>
      </trkpt>
      <trkpt lat="43.13344000" lon="-1.93625000">
        <ele>363.00000</ele>
        <time>2010-01-01T01:40:29Z</time>
      </trkpt>
      <trkpt lat="43.13327000" lon="-1.93630000">
        <ele>370.00000</ele>
        <time>2010-01-01T01:40:36Z</time>
      </trkpt>
      <trkpt lat="43.13239000" lon="-1.93713000">
        <ele>370.00000</ele>
        <time>2010-01-01T01:41:19Z</time>
      </trkpt>
      <trkpt lat="43.13207000" lon="-1.93743000">
        <ele>370.00000</ele>
        <time>2010-01-01T01:41:35Z</time>
      </trkpt>
      <trkpt lat="43.13164000" lon="-1.93786000">
        <ele>371.00000</ele>
        <time>2010-01-01T01:41:56Z</time>
      </trkpt>
      <trkpt lat="43.13121000" lon="-1.93821000">
        <ele>367.00000</ele>
        <time>2010-01-01T01:42:16Z</time>
      </trkpt>
      <trkpt lat="43.13074000" lon="-1.93870000">
        <ele>364.00000</ele>
        <time>2010-01-01T01:42:40Z</time>
      </trkpt>
      <trkpt lat="43.13029000" lon="-1.93892000">
        <ele>367.00000</ele>
        <time>2010-01-01T01:42:59Z</time>
      </trkpt>
      <trkpt lat="43.12930000" lon="-1.93896000">
        <ele>368.00000</ele>
        <time>2010-01-01T01:43:38Z</time>
      </trkpt>
      <trkpt lat="43.12902000" lon="-1.93896000">
        <ele>369.00000</ele>
        <time>2010-01-01T01:43:50Z</time>
      </trkpt>
      <trkpt lat="43.12870000" lon="-1.93900000">
        <ele>369.00000</ele>
        <time>2010-01-01T01:44:02Z</time>
      </trkpt>
      <trkpt lat="43.12857000" lon="-1.93898000">
        <ele>369.00000</ele>
        <time>2010-01-01T01:44:08Z</time>
      </trkpt>
      <trkpt lat="43.12842000" lon="-1.93889000">
        <ele>368.00000</ele>
        <time>2010-01-01T01:44:14Z</time>
      </trkpt>
      <trkpt lat="43.12805000" lon="-1.93861000">
        <ele>369.00000</ele>
        <time>2010-01-01T01:44:31Z</time>
      </trkpt>
      <trkpt lat="43.12756000" lon="-1.93812000">
        <ele>370.00000</ele>
        <time>2010-01-01T01:44:55Z</time>
      </trkpt>
      <trkpt lat="43.12715000" lon="-1.93767000">
        <ele>375.00000</ele>
        <time>2010-01-01T01:45:16Z</time>
      </trkpt>
      <trkpt lat="43.12668000" lon="-1.93713000">
        <ele>373.00000</ele>
        <time>2010-01-01T01:45:41Z</time>
      </trkpt>
      <trkpt lat="43.12647000" lon="-1.93692000">
        <ele>375.00000</ele>
        <time>2010-01-01T01:45:51Z</time>
      </trkpt>
      <trkpt lat="43.12636000" lon="-1.93679000">
        <ele>376.00000</ele>
        <time>2010-01-01T01:45:57Z</time>
      </trkpt>
      <trkpt lat="43.12619000" lon="-1.93655000">
        <ele>373.00000</ele>
        <time>2010-01-01T01:46:07Z</time>
      </trkpt>
      <trkpt lat="43.12591000" lon="-1.93602000">
        <ele>378.00000</ele>
        <time>2010-01-01T01:46:26Z</time>
      </trkpt>
      <trkpt lat="43.12574000" lon="-1.93570000">
        <ele>383.00000</ele>
        <time>2010-01-01T01:46:38Z</time>
      </trkpt>
      <trkpt lat="43.12572000" lon="-1.93565000">
        <ele>384.00000</ele>
        <time>2010-01-01T01:46:39Z</time>
      </trkpt>
      <trkpt lat="43.12552000" lon="-1.93533000">
        <ele>386.00000</ele>
        <time>2010-01-01T01:46:52Z</time>
      </trkpt>
      <trkpt lat="43.12533000" lon="-1.93522000">
        <ele>386.00000</ele>
        <time>2010-01-01T01:47:00Z</time>
      </trkpt>
      <trkpt lat="43.12503000" lon="-1.93512000">
        <ele>385.00000</ele>
        <time>2010-01-01T01:47:12Z</time>
      </trkpt>
      <trkpt lat="43.12486000" lon="-1.93510000">
        <ele>387.00000</ele>
        <time>2010-01-01T01:47:19Z</time>
      </trkpt>
      <trkpt lat="43.12462000" lon="-1.93507000">
        <ele>391.00000</ele>
        <time>2010-01-01T01:47:29Z</time>
      </trkpt>
      <trkpt lat="43.12398000" lon="-1.93514000">
        <ele>394.00000</ele>
        <time>2010-01-01T01:47:54Z</time>
      </trkpt>
      <trkpt lat="43.12370000" lon="-1.93527000">
        <ele>397.00000</ele>
        <time>2010-01-01T01:48:06Z</time>
      </trkpt>
      <trkpt lat="43.12222000" lon="-1.93568000">
        <ele>399.00000</ele>
        <time>2010-01-01T01:49:07Z</time>
      </trkpt>
      <trkpt lat="43.12183000" lon="-1.93595000">
        <ele>387.00000</ele>
        <time>2010-01-01T01:49:24Z</time>
      </trkpt>
      <trkpt lat="43.12170000" lon="-1.93600000">
        <ele>388.00000</ele>
        <time>2010-01-01T01:49:30Z</time>
      </trkpt>
      <trkpt lat="43.12147000" lon="-1.93608000">
        <ele>390.00000</ele>
        <time>2010-01-01T01:49:39Z</time>
      </trkpt>
      <trkpt lat="43.12119000" lon="-1.93619000">
        <ele>393.00000</ele>
        <time>2010-01-01T01:49:51Z</time>
      </trkpt>
      <trkpt lat="43.12093000" lon="-1.93630000">
        <ele>394.00000</ele>
        <time>2010-01-01T01:50:02Z</time>
      </trkpt>
      <trkpt lat="43.12080000" lon="-1.93636000">
        <ele>394.00000</ele>
        <time>2010-01-01T01:50:07Z</time>
      </trkpt>
      <trkpt lat="43.12061000" lon="-1.93643000">
        <ele>395.00000</ele>
        <time>2010-01-01T01:50:15Z</time>
      </trkpt>
      <trkpt lat="43.12037000" lon="-1.93651000">
        <ele>395.00000</ele>
        <time>2010-01-01T01:50:25Z</time>
      </trkpt>
      <trkpt lat="43.11986000" lon="-1.93688000">
        <ele>392.00000</ele>
        <time>2010-01-01T01:50:48Z</time>
      </trkpt>
      <trkpt lat="43.11975000" lon="-1.93694000">
        <ele>394.00000</ele>
        <time>2010-01-01T01:50:53Z</time>
      </trkpt>
      <trkpt lat="43.11958000" lon="-1.93707000">
        <ele>397.00000</ele>
        <time>2010-01-01T01:51:01Z</time>
      </trkpt>
      <trkpt lat="43.11926000" lon="-1.93735000">
        <ele>396.00000</ele>
        <time>2010-01-01T01:51:16Z</time>
      </trkpt>
      <trkpt lat="43.11915000" lon="-1.93743000">
        <ele>395.00000</ele>
        <time>2010-01-01T01:51:21Z</time>
      </trkpt>
      <trkpt lat="43.11902000" lon="-1.93750000">
        <ele>393.00000</ele>
        <time>2010-01-01T01:51:26Z</time>
      </trkpt>
      <trkpt lat="43.11872000" lon="-1.93767000">
        <ele>393.00000</ele>
        <time>2010-01-01T01:51:39Z</time>
      </trkpt>
      <trkpt lat="43.11861000" lon="-1.93774000">
        <ele>392.00000</ele>
        <time>2010-01-01T01:51:44Z</time>
      </trkpt>
      <trkpt lat="43.11842000" lon="-1.93780000">
        <ele>392.00000</ele>
        <time>2010-01-01T01:51:52Z</time>
      </trkpt>
      <trkpt lat="43.11782000" lon="-1.93786000">
        <ele>398.00000</ele>
        <time>2010-01-01T01:52:16Z</time>
      </trkpt>
      <trkpt lat="43.11778000" lon="-1.93786000">
        <ele>398.00000</ele>
        <time>2010-01-01T01:52:18Z</time>
      </trkpt>
      <trkpt lat="43.11750000" lon="-1.93769000">
        <ele>397.00000</ele>
        <time>2010-01-01T01:52:30Z</time>
      </trkpt>
      <trkpt lat="43.11720000" lon="-1.93765000">
        <ele>398.00000</ele>
        <time>2010-01-01T01:52:42Z</time>
      </trkpt>
      <trkpt lat="43.11690000" lon="-1.93681000">
        <ele>398.00000</ele>
        <time>2010-01-01T01:53:09Z</time>
      </trkpt>
      <trkpt lat="43.11681000" lon="-1.93666000">
        <ele>398.00000</ele>
        <time>2010-01-01T01:53:15Z</time>
      </trkpt>
      <trkpt lat="43.11668000" lon="-1.93643000">
        <ele>398.00000</ele>
        <time>2010-01-01T01:53:23Z</time>
      </trkpt>
      <trkpt lat="43.11640000" lon="-1.93608000">
        <ele>402.00000</ele>
        <time>2010-01-01T01:53:39Z</time>
      </trkpt>
      <trkpt lat="43.11621000" lon="-1.93591000">
        <ele>405.00000</ele>
        <time>2010-01-01T01:53:48Z</time>
      </trkpt>
      <trkpt lat="43.11595000" lon="-1.93570000">
        <ele>405.00000</ele>
        <time>2010-01-01T01:54:00Z</time>
      </trkpt>
      <trkpt lat="43.11559000" lon="-1.93550000">
        <ele>404.00000</ele>
        <time>2010-01-01T01:54:15Z</time>
      </trkpt>
      <trkpt lat="43.11529000" lon="-1.93548000">
        <ele>405.00000</ele>
        <time>2010-01-01T01:54:27Z</time>
      </trkpt>
      <trkpt lat="43.11494000" lon="-1.93559000">
        <ele>402.00000</ele>
        <time>2010-01-01T01:54:42Z</time>
      </trkpt>
      <trkpt lat="43.11471000" lon="-1.93580000">
        <ele>400.00000</ele>
        <time>2010-01-01T01:54:53Z</time>
      </trkpt>
      <trkpt lat="43.11445000" lon="-1.93613000">
        <ele>404.00000</ele>
        <time>2010-01-01T01:55:07Z</time>
      </trkpt>
      <trkpt lat="43.11432000" lon="-1.93625000">
        <ele>408.00000</ele>
        <time>2010-01-01T01:55:13Z</time>
      </trkpt>
      <trkpt lat="43.11411000" lon="-1.93647000">
        <ele>414.00000</ele>
        <time>2010-01-01T01:55:24Z</time>
      </trkpt>
      <trkpt lat="43.11359000" lon="-1.93690000">
        <ele>410.00000</ele>
        <time>2010-01-01T01:55:48Z</time>
      </trkpt>
      <trkpt lat="43.11318000" lon="-1.93671000">
        <ele>411.00000</ele>
        <time>2010-01-01T01:56:05Z</time>
      </trkpt>
      <trkpt lat="43.11299000" lon="-1.93649000">
        <ele>414.00000</ele>
        <time>2010-01-01T01:56:15Z</time>
      </trkpt>
      <trkpt lat="43.11278000" lon="-1.93623000">
        <ele>415.00000</ele>
        <time>2010-01-01T01:56:27Z</time>
      </trkpt>
      <trkpt lat="43.11243000" lon="-1.93589000">
        <ele>413.00000</ele>
        <time>2010-01-01T01:56:44Z</time>
      </trkpt>
      <trkpt lat="43.11207000" lon="-1.93576000">
        <ele>416.00000</ele>
        <time>2010-01-01T01:56:59Z</time>
      </trkpt>
      <trkpt lat="43.11153000" lon="-1.93606000">
        <ele>420.00000</ele>
        <time>2010-01-01T01:57:22Z</time>
      </trkpt>
      <trkpt lat="43.11123000" lon="-1.93668000">
        <ele>418.00000</ele>
        <time>2010-01-01T01:57:44Z</time>
      </trkpt>
      <trkpt lat="43.11104000" lon="-1.93701000">
        <ele>414.00000</ele>
        <time>2010-01-01T01:57:56Z</time>
      </trkpt>
      <trkpt lat="43.11085000" lon="-1.93722000">
        <ele>412.00000</ele>
        <time>2010-01-01T01:58:06Z</time>
      </trkpt>
      <trkpt lat="43.11063000" lon="-1.93733000">
        <ele>414.00000</ele>
        <time>2010-01-01T01:58:15Z</time>
      </trkpt>
      <trkpt lat="43.11031000" lon="-1.93741000">
        <ele>416.00000</ele>
        <time>2010-01-01T01:58:28Z</time>
      </trkpt>
      <trkpt lat="43.11022000" lon="-1.93741000">
        <ele>417.00000</ele>
        <time>2010-01-01T01:58:32Z</time>
      </trkpt>
      <trkpt lat="43.10997000" lon="-1.93746000">
        <ele>417.00000</ele>
        <time>2010-01-01T01:58:42Z</time>
      </trkpt>
      <trkpt lat="43.10988000" lon="-1.93748000">
        <ele>416.00000</ele>
        <time>2010-01-01T01:58:46Z</time>
      </trkpt>
      <trkpt lat="43.10971000" lon="-1.93748000">
        <ele>415.00000</ele>
        <time>2010-01-01T01:58:53Z</time>
      </trkpt>
      <trkpt lat="43.10909000" lon="-1.93754000">
        <ele>412.00000</ele>
        <time>2010-01-01T01:59:17Z</time>
      </trkpt>
      <trkpt lat="43.10866000" lon="-1.93782000">
        <ele>418.00000</ele>
        <time>2010-01-01T01:59:36Z</time>
      </trkpt>
      <trkpt lat="43.10853000" lon="-1.93844000">
        <ele>419.00000</ele>
        <time>2010-01-01T01:59:55Z</time>
      </trkpt>
      <trkpt lat="43.10851000" lon="-1.93864000">
        <ele>418.00000</ele>
        <time>2010-01-01T02:00:01Z</time>
      </trkpt>
      <trkpt lat="43.10846000" lon="-1.93877000">
        <ele>417.00000</ele>
        <time>2010-01-01T02:00:06Z</time>
      </trkpt>
      <trkpt lat="43.10823000" lon="-1.93883000">
        <ele>418.00000</ele>
        <time>2010-01-01T02:00:15Z</time>
      </trkpt>
      <trkpt lat="43.10788000" lon="-1.93849000">
        <ele>426.00000</ele>
        <time>2010-01-01T02:00:32Z</time>
      </trkpt>
      <trkpt lat="43.10754000" lon="-1.93825000">
        <ele>424.00000</ele>
        <time>2010-01-01T02:00:47Z</time>
      </trkpt>
      <trkpt lat="43.10707000" lon="-1.93797000">
        <ele>420.00000</ele>
        <time>2010-01-01T02:01:08Z</time>
      </trkpt>
      <trkpt lat="43.10692000" lon="-1.93778000">
        <ele>421.00000</ele>
        <time>2010-01-01T02:01:16Z</time>
      </trkpt>
      <trkpt lat="43.10681000" lon="-1.93763000">
        <ele>425.00000</ele>
        <time>2010-01-01T02:01:22Z</time>
      </trkpt>
      <trkpt lat="43.10662000" lon="-1.93750000">
        <ele>428.00000</ele>
        <time>2010-01-01T02:01:31Z</time>
      </trkpt>
      <trkpt lat="43.10604000" lon="-1.93737000">
        <ele>430.00000</ele>
        <time>2010-01-01T02:01:54Z</time>
      </trkpt>
      <trkpt lat="43.10589000" lon="-1.93741000">
        <ele>429.00000</ele>
        <time>2010-01-01T02:02:00Z</time>
      </trkpt>
      <trkpt lat="43.10548000" lon="-1.93771000">
        <ele>428.00000</ele>
        <time>2010-01-01T02:02:19Z</time>
      </trkpt>
      <trkpt lat="43.10544000" lon="-1.93776000">
        <ele>428.00000</ele>
        <time>2010-01-01T02:02:21Z</time>
      </trkpt>
      <trkpt lat="43.10497000" lon="-1.93840000">
        <ele>432.00000</ele>
        <time>2010-01-01T02:02:48Z</time>
      </trkpt>
      <trkpt lat="43.10439000" lon="-1.93915000">
        <ele>433.00000</ele>
        <time>2010-01-01T02:03:20Z</time>
      </trkpt>
      <trkpt lat="43.10428000" lon="-1.93928000">
        <ele>433.00000</ele>
        <time>2010-01-01T02:03:25Z</time>
      </trkpt>
      <trkpt lat="43.10413000" lon="-1.93945000">
        <ele>432.00000</ele>
        <time>2010-01-01T02:03:33Z</time>
      </trkpt>
      <trkpt lat="43.10398000" lon="-1.93967000">
        <ele>435.00000</ele>
        <time>2010-01-01T02:03:42Z</time>
      </trkpt>
      <trkpt lat="43.10383000" lon="-1.93988000">
        <ele>436.00000</ele>
        <time>2010-01-01T02:03:51Z</time>
      </trkpt>
      <trkpt lat="43.10374000" lon="-1.94007000">
        <ele>435.00000</ele>
        <time>2010-01-01T02:03:57Z</time>
      </trkpt>
      <trkpt lat="43.10366000" lon="-1.94033000">
        <ele>432.00000</ele>
        <time>2010-01-01T02:04:06Z</time>
      </trkpt>
      <trkpt lat="43.10357000" lon="-1.94052000">
        <ele>432.00000</ele>
        <time>2010-01-01T02:04:12Z</time>
      </trkpt>
      <trkpt lat="43.10351000" lon="-1.94067000">
        <ele>433.00000</ele>
        <time>2010-01-01T02:04:17Z</time>
      </trkpt>
      <trkpt lat="43.10333000" lon="-1.94106000">
        <ele>436.00000</ele>
        <time>2010-01-01T02:04:31Z</time>
      </trkpt>
      <trkpt lat="43.10314000" lon="-1.94134000">
        <ele>440.00000</ele>
        <time>2010-01-01T02:04:42Z</time>
      </trkpt>
      <trkpt lat="43.10301000" lon="-1.94158000">
        <ele>440.00000</ele>
        <time>2010-01-01T02:04:51Z</time>
      </trkpt>
      <trkpt lat="43.10263000" lon="-1.94258000">
        <ele>433.00000</ele>
        <time>2010-01-01T02:05:24Z</time>
      </trkpt>
      <trkpt lat="43.10230000" lon="-1.94336000">
        <ele>431.00000</ele>
        <time>2010-01-01T02:05:50Z</time>
      </trkpt>
      <trkpt lat="43.10207000" lon="-1.94387000">
        <ele>434.00000</ele>
        <time>2010-01-01T02:06:07Z</time>
      </trkpt>
      <trkpt lat="43.10158000" lon="-1.94456000">
        <ele>442.00000</ele>
        <time>2010-01-01T02:06:36Z</time>
      </trkpt>
      <trkpt lat="43.10119000" lon="-1.94486000">
        <ele>441.00000</ele>
        <time>2010-01-01T02:06:53Z</time>
      </trkpt>
      <trkpt lat="43.10104000" lon="-1.94497000">
        <ele>438.00000</ele>
        <time>2010-01-01T02:07:00Z</time>
      </trkpt>
      <trkpt lat="43.10033000" lon="-1.94516000">
        <ele>438.00000</ele>
        <time>2010-01-01T02:07:29Z</time>
      </trkpt>
      <trkpt lat="43.09982000" lon="-1.94529000">
        <ele>439.00000</ele>
        <time>2010-01-01T02:07:50Z</time>
      </trkpt>
      <trkpt lat="43.09896000" lon="-1.94548000">
        <ele>441.00000</ele>
        <time>2010-01-01T02:08:25Z</time>
      </trkpt>
      <trkpt lat="43.09829000" lon="-1.94561000">
        <ele>445.00000</ele>
        <time>2010-01-01T02:08:52Z</time>
      </trkpt>
      <trkpt lat="43.09761000" lon="-1.94548000">
        <ele>442.00000</ele>
        <time>2010-01-01T02:09:19Z</time>
      </trkpt>
      <trkpt lat="43.09739000" lon="-1.94537000">
        <ele>441.00000</ele>
        <time>2010-01-01T02:09:29Z</time>
      </trkpt>
      <trkpt lat="43.09705000" lon="-1.94518000">
        <ele>441.00000</ele>
        <time>2010-01-01T02:09:43Z</time>
      </trkpt>
      <trkpt lat="43.09643000" lon="-1.94445000">
        <ele>447.00000</ele>
        <time>2010-01-01T02:10:16Z</time>
      </trkpt>
      <trkpt lat="43.09617000" lon="-1.94385000">
        <ele>453.00000</ele>
        <time>2010-01-01T02:10:37Z</time>
      </trkpt>
      <trkpt lat="43.09610000" lon="-1.94361000">
        <ele>455.00000</ele>
        <time>2010-01-01T02:10:44Z</time>
      </trkpt>
      <trkpt lat="43.09606000" lon="-1.94338000">
        <ele>456.00000</ele>
        <time>2010-01-01T02:10:51Z</time>
      </trkpt>
      <trkpt lat="43.09595000" lon="-1.94269000">
        <ele>457.00000</ele>
        <time>2010-01-01T02:11:12Z</time>
      </trkpt>
      <trkpt lat="43.09578000" lon="-1.94179000">
        <ele>461.00000</ele>
        <time>2010-01-01T02:11:39Z</time>
      </trkpt>
      <trkpt lat="43.09570000" lon="-1.94162000">
        <ele>459.00000</ele>
        <time>2010-01-01T02:11:45Z</time>
      </trkpt>
      <trkpt lat="43.09540000" lon="-1.94100000">
        <ele>463.00000</ele>
        <time>2010-01-01T02:12:07Z</time>
      </trkpt>
      <trkpt lat="43.09510000" lon="-1.94063000">
        <ele>468.00000</ele>
        <time>2010-01-01T02:12:23Z</time>
      </trkpt>
      <trkpt lat="43.09467000" lon="-1.94042000">
        <ele>463.00000</ele>
        <time>2010-01-01T02:12:41Z</time>
      </trkpt>
      <trkpt lat="43.09460000" lon="-1.94037000">
        <ele>463.00000</ele>
        <time>2010-01-01T02:12:44Z</time>
      </trkpt>
      <trkpt lat="43.09439000" lon="-1.94033000">
        <ele>460.00000</ele>
        <time>2010-01-01T02:12:53Z</time>
      </trkpt>
      <trkpt lat="43.09370000" lon="-1.94035000">
        <ele>456.00000</ele>
        <time>2010-01-01T02:13:20Z</time>
      </trkpt>
      <trkpt lat="43.09346000" lon="-1.94035000">
        <ele>459.00000</ele>
        <time>2010-01-01T02:13:30Z</time>
      </trkpt>
      <trkpt lat="43.09233000" lon="-1.94014000">
        <ele>462.00000</ele>
        <time>2010-01-01T02:14:15Z</time>
      </trkpt>
      <trkpt lat="43.09224000" lon="-1.94003000">
        <ele>461.00000</ele>
        <time>2010-01-01T02:14:20Z</time>
      </trkpt>
      <trkpt lat="43.09201000" lon="-1.93975000">
        <ele>459.00000</ele>
        <time>2010-01-01T02:14:33Z</time>
      </trkpt>
      <trkpt lat="43.09181000" lon="-1.93928000">
        <ele>462.00000</ele>
        <time>2010-01-01T02:14:49Z</time>
      </trkpt>
      <trkpt lat="43.09155000" lon="-1.93840000">
        <ele>454.00000</ele>
        <time>2010-01-01T02:15:16Z</time>
      </trkpt>
      <trkpt lat="43.09145000" lon="-1.93808000">
        <ele>453.00000</ele>
        <time>2010-01-01T02:15:26Z</time>
      </trkpt>
      <trkpt lat="43.09113000" lon="-1.93705000">
        <ele>464.00000</ele>
        <time>2010-01-01T02:15:59Z</time>
      </trkpt>
      <trkpt lat="43.09108000" lon="-1.93692000">
        <ele>465.00000</ele>
        <time>2010-01-01T02:16:03Z</time>
      </trkpt>
      <trkpt lat="43.09102000" lon="-1.93671000">
        <ele>464.00000</ele>
        <time>2010-01-01T02:16:10Z</time>
      </trkpt>
      <trkpt lat="43.09095000" lon="-1.93649000">
        <ele>463.00000</ele>
        <time>2010-01-01T02:16:17Z</time>
      </trkpt>
      <trkpt lat="43.09072000" lon="-1.93555000">
        <ele>465.00000</ele>
        <time>2010-01-01T02:16:46Z</time>
      </trkpt>
      <trkpt lat="43.09070000" lon="-1.93484000">
        <ele>473.00000</ele>
        <time>2010-01-01T02:17:07Z</time>
      </trkpt>
      <trkpt lat="43.09072000" lon="-1.93460000">
        <ele>474.00000</ele>
        <time>2010-01-01T02:17:14Z</time>
      </trkpt>
      <trkpt lat="43.09072000" lon="-1.93454000">
        <ele>473.00000</ele>
        <time>2010-01-01T02:17:16Z</time>
      </trkpt>
      <trkpt lat="43.09072000" lon="-1.93411000">
        <ele>472.00000</ele>
        <time>2010-01-01T02:17:28Z</time>
      </trkpt>
      <trkpt lat="43.09076000" lon="-1.93304000">
        <ele>474.00000</ele>
        <time>2010-01-01T02:18:00Z</time>
      </trkpt>
      <trkpt lat="43.09078000" lon="-1.93280000">
        <ele>477.00000</ele>
        <time>2010-01-01T02:18:07Z</time>
      </trkpt>
      <trkpt lat="43.09078000" lon="-1.93256000">
        <ele>477.00000</ele>
        <time>2010-01-01T02:18:14Z</time>
      </trkpt>
      <trkpt lat="43.09078000" lon="-1.93250000">
        <ele>477.00000</ele>
        <time>2010-01-01T02:18:15Z</time>
      </trkpt>
      <trkpt lat="43.09078000" lon="-1.93237000">
        <ele>478.00000</ele>
        <time>2010-01-01T02:18:19Z</time>
      </trkpt>
      <trkpt lat="43.09080000" lon="-1.93168000">
        <ele>480.00000</ele>
        <time>2010-01-01T02:18:39Z</time>
      </trkpt>
      <trkpt lat="43.09080000" lon="-1.93143000">
        <ele>478.00000</ele>
        <time>2010-01-01T02:18:47Z</time>
      </trkpt>
      <trkpt lat="43.09083000" lon="-1.93125000">
        <ele>479.00000</ele>
        <time>2010-01-01T02:18:52Z</time>
      </trkpt>
      <trkpt lat="43.09083000" lon="-1.93100000">
        <ele>479.00000</ele>
        <time>2010-01-01T02:18:59Z</time>
      </trkpt>
      <trkpt lat="43.09089000" lon="-1.93076000">
        <ele>483.00000</ele>
        <time>2010-01-01T02:19:07Z</time>
      </trkpt>
      <trkpt lat="43.09102000" lon="-1.93020000">
        <ele>484.00000</ele>
        <time>2010-01-01T02:19:24Z</time>
      </trkpt>
      <trkpt lat="43.09106000" lon="-1.93003000">
        <ele>484.00000</ele>
        <time>2010-01-01T02:19:29Z</time>
      </trkpt>
      <trkpt lat="43.09121000" lon="-1.92945000">
        <ele>489.00000</ele>
        <time>2010-01-01T02:19:47Z</time>
      </trkpt>
      <trkpt lat="43.09125000" lon="-1.92919000">
        <ele>486.00000</ele>
        <time>2010-01-01T02:19:55Z</time>
      </trkpt>
      <trkpt lat="43.09132000" lon="-1.92894000">
        <ele>483.00000</ele>
        <time>2010-01-01T02:20:03Z</time>
      </trkpt>
      <trkpt lat="43.09134000" lon="-1.92866000">
        <ele>482.00000</ele>
        <time>2010-01-01T02:20:11Z</time>
      </trkpt>
      <trkpt lat="43.09140000" lon="-1.92814000">
        <ele>487.00000</ele>
        <time>2010-01-01T02:20:26Z</time>
      </trkpt>
      <trkpt lat="43.09145000" lon="-1.92759000">
        <ele>492.00000</ele>
        <time>2010-01-01T02:20:43Z</time>
      </trkpt>
      <trkpt lat="43.09147000" lon="-1.92741000">
        <ele>495.00000</ele>
        <time>2010-01-01T02:20:48Z</time>
      </trkpt>
      <trkpt lat="43.09145000" lon="-1.92735000">
        <ele>495.00000</ele>
        <time>2010-01-01T02:20:50Z</time>
      </trkpt>
      <trkpt lat="43.09140000" lon="-1.92703000">
        <ele>499.00000</ele>
        <time>2010-01-01T02:20:59Z</time>
      </trkpt>
      <trkpt lat="43.09136000" lon="-1.92677000">
        <ele>501.00000</ele>
        <time>2010-01-01T02:21:07Z</time>
      </trkpt>
      <trkpt lat="43.09132000" lon="-1.92664000">
        <ele>499.00000</ele>
        <time>2010-01-01T02:21:11Z</time>
      </trkpt>
      <trkpt lat="43.09115000" lon="-1.92617000">
        <ele>488.00000</ele>
        <time>2010-01-01T02:21:27Z</time>
      </trkpt>
      <trkpt lat="43.09108000" lon="-1.92602000">
        <ele>486.00000</ele>
        <time>2010-01-01T02:21:32Z</time>
      </trkpt>
      <trkpt lat="43.09098000" lon="-1.92583000">
        <ele>487.00000</ele>
        <time>2010-01-01T02:21:39Z</time>
      </trkpt>
      <trkpt lat="43.09083000" lon="-1.92557000">
        <ele>485.00000</ele>
        <time>2010-01-01T02:21:48Z</time>
      </trkpt>
      <trkpt lat="43.09063000" lon="-1.92533000">
        <ele>484.00000</ele>
        <time>2010-01-01T02:21:59Z</time>
      </trkpt>
      <trkpt lat="43.09046000" lon="-1.92510000">
        <ele>484.00000</ele>
        <time>2010-01-01T02:22:09Z</time>
      </trkpt>
      <trkpt lat="43.09025000" lon="-1.92484000">
        <ele>488.00000</ele>
        <time>2010-01-01T02:22:20Z</time>
      </trkpt>
      <trkpt lat="43.09003000" lon="-1.92460000">
        <ele>490.00000</ele>
        <time>2010-01-01T02:22:31Z</time>
      </trkpt>
      <trkpt lat="43.08988000" lon="-1.92432000">
        <ele>490.00000</ele>
        <time>2010-01-01T02:22:41Z</time>
      </trkpt>
      <trkpt lat="43.08984000" lon="-1.92428000">
        <ele>490.00000</ele>
        <time>2010-01-01T02:22:43Z</time>
      </trkpt>
      <trkpt lat="43.08975000" lon="-1.92400000">
        <ele>490.00000</ele>
        <time>2010-01-01T02:22:52Z</time>
      </trkpt>
      <trkpt lat="43.08943000" lon="-1.92323000">
        <ele>489.00000</ele>
        <time>2010-01-01T02:23:18Z</time>
      </trkpt>
      <trkpt lat="43.08937000" lon="-1.92304000">
        <ele>492.00000</ele>
        <time>2010-01-01T02:23:24Z</time>
      </trkpt>
      <trkpt lat="43.08915000" lon="-1.92250000">
        <ele>499.00000</ele>
        <time>2010-01-01T02:23:42Z</time>
      </trkpt>
      <trkpt lat="43.08909000" lon="-1.92244000">
        <ele>499.00000</ele>
        <time>2010-01-01T02:23:45Z</time>
      </trkpt>
      <trkpt lat="43.08840000" lon="-1.92068000">
        <ele>498.00000</ele>
        <time>2010-01-01T02:24:44Z</time>
      </trkpt>
      <trkpt lat="43.08814000" lon="-1.92010000">
        <ele>491.00000</ele>
        <time>2010-01-01T02:25:04Z</time>
      </trkpt>
      <trkpt lat="43.08776000" lon="-1.91917000">
        <ele>486.00000</ele>
        <time>2010-01-01T02:25:35Z</time>
      </trkpt>
      <trkpt lat="43.08728000" lon="-1.91784000">
        <ele>489.00000</ele>
        <time>2010-01-01T02:26:18Z</time>
      </trkpt>
      <trkpt lat="43.08733000" lon="-1.91789000">
        <ele>489.00000</ele>
        <time>2010-01-01T02:26:21Z</time>
      </trkpt>
      <trkpt lat="43.08731000" lon="-1.91787000">
        <ele>489.00000</ele>
        <time>2010-01-01T02:26:22Z</time>
      </trkpt>
      <trkpt lat="43.08711571" lon="-1.91756486">
        <ele>489.00000</ele>
        <time>2010-01-01T02:26:33Z</time>
      </trkpt>
      <trkpt lat="43.08694333" lon="-1.91711425">
        <ele>492.00000</ele>
        <time>2010-01-01T02:26:48Z</time>
      </trkpt>
      <trkpt lat="43.08607359" lon="-1.91488265">
        <ele>491.00000</ele>
        <time>2010-01-01T02:28:02Z</time>
      </trkpt>
      <trkpt lat="43.08561129" lon="-1.91373467">
        <ele>495.00000</ele>
        <time>2010-01-01T02:28:41Z</time>
      </trkpt>
      <trkpt lat="43.08550943" lon="-1.91361665">
        <ele>495.00000</ele>
        <time>2010-01-01T02:28:46Z</time>
      </trkpt>
      <trkpt lat="43.08521951" lon="-1.91361665">
        <ele>491.00000</ele>
        <time>2010-01-01T02:28:57Z</time>
      </trkpt>
      <trkpt lat="43.08417735" lon="-1.91362738">
        <ele>482.00000</ele>
        <time>2010-01-01T02:29:39Z</time>
      </trkpt>
      <trkpt lat="43.08367586" lon="-1.91367030">
        <ele>475.00000</ele>
        <time>2010-01-01T02:29:59Z</time>
      </trkpt>
      <trkpt lat="43.08314302" lon="-1.91360592">
        <ele>469.00000</ele>
        <time>2010-01-01T02:30:21Z</time>
      </trkpt>
    </trkseg>
  </trk>
</gpx>
